PWSweather.com
Personal Weather Stations
Station Observations
EI4HQ
Cork Harbour, CobhIE

Cork HarbourCobhIE

Lat: 51.85, Lon: -8.29

Elevation: 252

Station Type: Davis Vantage Pro2

http://www.corkharbourweather.ie

High Low Average
Temperature 63.3°F17.4°C 57.9°F14.4°C 60.8°F16.0°C
Dew Point 62.8°F17.1°C 55.0°F12.8°C 59.5°F15.3°C
Winds 21.0 mph 33.8 kmh 3.0 mph 4.8 kmh 10.0 mph S16.1 kmh S
Wind Gusts 37.0 mph59.5 kmh 5.0 mph8.0 kmh 18.0 mph29.0 kmh
Humidity 98% 90% 96%
Pressure 30.00 in1015.9 mb 29.92 in1013.2 mb -
Precipitation 0.18 in4.6 mm - -
Hour Temp Dew Point Humidity Winds Wind Gusts Pressure Precip Precip Rate Daily Precip Total
12:00 AM 57.9°F14.4°C 55.0°F12.8°C 90% 7.0 mph S11.3 kmh S 12.0 mph19.3 kmh 29.97 in1014.9 mb 0.00 in0.0 mm 0.00 in0.0 mm 0.00 in0.0 mm
12:03 AM 58.1°F14.5°C 55.2°F12.9°C 90% 7.0 mph S11.3 kmh S 12.0 mph19.3 kmh 29.97 in1014.9 mb 0.00 in0.0 mm 0.00 in0.0 mm 0.00 in0.0 mm
12:06 AM 58.3°F14.6°C 55.4°F13.0°C 90% 7.0 mph S11.3 kmh S 12.0 mph19.3 kmh 29.98 in1015.2 mb 0.00 in0.0 mm 0.00 in0.0 mm 0.00 in0.0 mm
12:09 AM 58.5°F14.7°C 55.4°F13.0°C 90% 7.0 mph S11.3 kmh S 12.0 mph19.3 kmh 29.98 in1015.2 mb 0.00 in0.0 mm 0.00 in0.0 mm 0.00 in0.0 mm
12:12 AM 58.5°F14.7°C 55.6°F13.1°C 90% 7.0 mph S11.3 kmh S 12.0 mph19.3 kmh 29.98 in1015.2 mb 0.00 in0.0 mm 0.00 in0.0 mm 0.00 in0.0 mm
12:15 AM 58.6°F14.8°C 55.8°F13.2°C 90% 7.0 mph S11.3 kmh S 12.0 mph19.3 kmh 29.97 in1014.9 mb 0.00 in0.0 mm 0.00 in0.0 mm 0.00 in0.0 mm
12:18 AM 58.8°F14.9°C 55.9°F13.3°C 90% 7.0 mph S11.3 kmh S 12.0 mph19.3 kmh 29.97 in1014.9 mb 0.00 in0.0 mm 0.00 in0.0 mm 0.00 in0.0 mm
12:21 AM 58.8°F14.9°C 56.7°F13.7°C 92% 6.0 mph S9.7 kmh S 12.0 mph19.3 kmh 29.97 in1014.9 mb 0.00 in0.0 mm 0.00 in0.0 mm 0.00 in0.0 mm
12:24 AM 59.0°F15.0°C 56.1°F13.4°C 90% 5.0 mph S8.0 kmh S 12.0 mph19.3 kmh 29.97 in1014.9 mb 0.00 in0.0 mm 0.00 in0.0 mm 0.00 in0.0 mm
12:27 AM 59.2°F15.1°C 56.1°F13.4°C 90% 4.0 mph S6.4 kmh S 9.0 mph14.5 kmh 29.97 in1014.9 mb 0.00 in0.0 mm 0.00 in0.0 mm 0.00 in0.0 mm
12:30 AM 59.2°F15.1°C 56.3°F13.5°C 90% 4.0 mph SSW6.4 kmh SSW 8.0 mph12.9 kmh 29.97 in1014.9 mb 0.00 in0.0 mm 0.00 in0.0 mm 0.00 in0.0 mm
12:33 AM 59.2°F15.1°C 56.3°F13.5°C 90% 4.0 mph SSW6.4 kmh SSW 8.0 mph12.9 kmh 29.97 in1014.9 mb 0.00 in0.0 mm 0.00 in0.0 mm 0.00 in0.0 mm
12:36 AM 59.4°F15.2°C 56.3°F13.5°C 90% 4.0 mph SSW6.4 kmh SSW 8.0 mph12.9 kmh 29.98 in1015.2 mb 0.00 in0.0 mm 0.00 in0.0 mm 0.00 in0.0 mm
12:39 AM 59.4°F15.2°C 56.5°F13.6°C 90% 4.0 mph SSW6.4 kmh SSW 12.0 mph19.3 kmh 29.97 in1014.9 mb 0.00 in0.0 mm 0.00 in0.0 mm 0.00 in0.0 mm
12:42 AM 59.4°F15.2°C 56.5°F13.6°C 90% 5.0 mph SW8.0 kmh SW 15.0 mph24.1 kmh 29.97 in1014.9 mb 0.00 in0.0 mm 0.00 in0.0 mm 0.00 in0.0 mm
12:45 AM 59.4°F15.2°C 56.5°F13.6°C 90% 6.0 mph SW9.7 kmh SW 15.0 mph24.1 kmh 29.97 in1014.9 mb 0.00 in0.0 mm 0.00 in0.0 mm 0.00 in0.0 mm
12:48 AM 59.4°F15.2°C 56.8°F13.8°C 91% 5.0 mph SW8.0 kmh SW 15.0 mph24.1 kmh 29.97 in1014.9 mb 0.00 in0.0 mm 0.00 in0.0 mm 0.00 in0.0 mm
12:51 AM 59.4°F15.2°C 56.8°F13.8°C 91% 5.0 mph SW8.0 kmh SW 12.0 mph19.3 kmh 29.97 in1014.9 mb 0.00 in0.0 mm 0.00 in0.0 mm 0.00 in0.0 mm
12:54 AM 59.4°F15.2°C 56.8°F13.8°C 91% 4.0 mph SW6.4 kmh SW 9.0 mph14.5 kmh 29.97 in1014.9 mb 0.00 in0.0 mm 0.00 in0.0 mm 0.00 in0.0 mm
12:57 AM 59.4°F15.2°C 56.8°F13.8°C 91% 4.0 mph SW6.4 kmh SW 10.0 mph16.1 kmh 29.97 in1014.9 mb 0.00 in0.0 mm 0.00 in0.0 mm 0.00 in0.0 mm
01:00 AM 59.4°F15.2°C 56.8°F13.8°C 91% 4.0 mph SW6.4 kmh SW 10.0 mph16.1 kmh 29.97 in1014.9 mb 0.00 in0.0 mm 0.00 in0.0 mm 0.00 in0.0 mm
01:03 AM 59.4°F15.2°C 56.8°F13.8°C 91% 4.0 mph SW6.4 kmh SW 10.0 mph16.1 kmh 29.97 in1014.9 mb 0.00 in0.0 mm 0.00 in0.0 mm 0.00 in0.0 mm
01:06 AM 59.4°F15.2°C 56.8°F13.8°C 91% 4.0 mph SW6.4 kmh SW 10.0 mph16.1 kmh 29.97 in1014.9 mb 0.00 in0.0 mm 0.00 in0.0 mm 0.00 in0.0 mm
01:09 AM 59.4°F15.2°C 56.8°F13.8°C 91% 4.0 mph SW6.4 kmh SW 11.0 mph17.7 kmh 29.97 in1014.9 mb 0.00 in0.0 mm 0.00 in0.0 mm 0.00 in0.0 mm
01:12 AM 59.4°F15.2°C 56.8°F13.8°C 91% 5.0 mph SW8.0 kmh SW 11.0 mph17.7 kmh 29.97 in1014.9 mb 0.00 in0.0 mm 0.00 in0.0 mm 0.00 in0.0 mm
01:15 AM 59.4°F15.2°C 56.8°F13.8°C 91% 5.0 mph SW8.0 kmh SW 11.0 mph17.7 kmh 29.97 in1014.9 mb 0.00 in0.0 mm 0.00 in0.0 mm 0.00 in0.0 mm
01:18 AM 59.4°F15.2°C 56.8°F13.8°C 91% 5.0 mph SSW8.0 kmh SSW 10.0 mph16.1 kmh 29.97 in1014.9 mb 0.00 in0.0 mm 0.00 in0.0 mm 0.00 in0.0 mm
01:21 AM 59.2°F15.1°C 56.7°F13.7°C 91% 5.0 mph SSW8.0 kmh SSW 14.0 mph22.5 kmh 29.97 in1014.9 mb 0.00 in0.0 mm 0.00 in0.0 mm 0.00 in0.0 mm
01:24 AM 59.0°F15.0°C 56.3°F13.5°C 91% 6.0 mph SW9.7 kmh SW 14.0 mph22.5 kmh 29.97 in1014.9 mb 0.00 in0.0 mm 0.00 in0.0 mm 0.00 in0.0 mm
01:27 AM 58.8°F14.9°C 56.3°F13.5°C 91% 6.0 mph SW9.7 kmh SW 14.0 mph22.5 kmh 29.98 in1015.2 mb 0.00 in0.0 mm 0.00 in0.0 mm 0.00 in0.0 mm
01:30 AM 58.8°F14.9°C 56.5°F13.6°C 92% 6.0 mph SW9.7 kmh SW 14.0 mph22.5 kmh 29.98 in1015.2 mb 0.00 in0.0 mm 0.00 in0.0 mm 0.00 in0.0 mm
01:33 AM 58.8°F14.9°C 56.5°F13.6°C 92% 5.0 mph SW8.0 kmh SW 12.0 mph19.3 kmh 29.98 in1015.2 mb 0.00 in0.0 mm 0.00 in0.0 mm 0.00 in0.0 mm
01:36 AM 58.8°F14.9°C 56.5°F13.6°C 92% 5.0 mph SW8.0 kmh SW 10.0 mph16.1 kmh 29.98 in1015.2 mb 0.00 in0.0 mm 0.00 in0.0 mm 0.00 in0.0 mm
01:39 AM 58.8°F14.9°C 56.5°F13.6°C 92% 4.0 mph SW6.4 kmh SW 10.0 mph16.1 kmh 29.98 in1015.2 mb 0.00 in0.0 mm 0.00 in0.0 mm 0.00 in0.0 mm
01:42 AM 58.8°F14.9°C 56.5°F13.6°C 92% 4.0 mph SW6.4 kmh SW 8.0 mph12.9 kmh 29.98 in1015.2 mb 0.00 in0.0 mm 0.00 in0.0 mm 0.00 in0.0 mm
01:45 AM 58.6°F14.8°C 56.3°F13.5°C 92% 3.0 mph SSW4.8 kmh SSW 7.0 mph11.3 kmh 29.98 in1015.2 mb 0.01 in0.3 mm 0.20 in5.1 mm 0.01 in0.3 mm
01:48 AM 58.6°F14.8°C 56.3°F13.5°C 92% 4.0 mph S6.4 kmh S 7.0 mph11.3 kmh 29.98 in1015.2 mb 0.01 in0.3 mm 0.00 in0.0 mm 0.01 in0.3 mm
01:51 AM 58.6°F14.8°C 56.3°F13.5°C 92% 4.0 mph S6.4 kmh S 7.0 mph11.3 kmh 29.98 in1015.2 mb 0.01 in0.3 mm 0.00 in0.0 mm 0.01 in0.3 mm
01:54 AM 58.6°F14.8°C 56.7°F13.7°C 93% 4.0 mph S6.4 kmh S 7.0 mph11.3 kmh 29.98 in1015.2 mb 0.01 in0.3 mm 0.00 in0.0 mm 0.01 in0.3 mm
01:57 AM 58.6°F14.8°C 56.7°F13.7°C 93% 4.0 mph S6.4 kmh S 8.0 mph12.9 kmh 29.98 in1015.2 mb 0.01 in0.3 mm 0.00 in0.0 mm 0.01 in0.3 mm
02:00 AM 58.5°F14.7°C 56.5°F13.6°C 93% 5.0 mph S8.0 kmh S 10.0 mph16.1 kmh 29.98 in1015.2 mb 0.01 in0.3 mm 0.00 in0.0 mm 0.01 in0.3 mm
02:03 AM 58.5°F14.7°C 56.5°F13.6°C 93% 5.0 mph S8.0 kmh S 10.0 mph16.1 kmh 29.98 in1015.2 mb 0.01 in0.3 mm 0.00 in0.0 mm 0.01 in0.3 mm
02:06 AM 58.5°F14.7°C 56.5°F13.6°C 93% 5.0 mph S8.0 kmh S 10.0 mph16.1 kmh 29.97 in1014.9 mb 0.01 in0.3 mm 0.00 in0.0 mm 0.01 in0.3 mm
02:09 AM 58.5°F14.7°C 56.5°F13.6°C 93% 6.0 mph S9.7 kmh S 10.0 mph16.1 kmh 29.97 in1014.9 mb 0.01 in0.3 mm 0.00 in0.0 mm 0.01 in0.3 mm
02:12 AM 58.5°F14.7°C 56.3°F13.5°C 93% 6.0 mph S9.7 kmh S 10.0 mph16.1 kmh 29.97 in1014.9 mb 0.01 in0.3 mm 0.00 in0.0 mm 0.01 in0.3 mm
02:15 AM 58.5°F14.7°C 56.3°F13.5°C 93% 5.0 mph S8.0 kmh S 10.0 mph16.1 kmh 29.97 in1014.9 mb 0.02 in0.5 mm 0.20 in5.1 mm 0.02 in0.5 mm
02:18 AM 58.5°F14.7°C 56.7°F13.7°C 94% 5.0 mph S8.0 kmh S 10.0 mph16.1 kmh 29.97 in1014.9 mb 0.02 in0.5 mm 0.00 in0.0 mm 0.02 in0.5 mm
02:21 AM 58.5°F14.7°C 56.7°F13.7°C 94% 5.0 mph S8.0 kmh S 10.0 mph16.1 kmh 29.97 in1014.9 mb 0.02 in0.5 mm 0.00 in0.0 mm 0.02 in0.5 mm
02:24 AM 58.5°F14.7°C 56.7°F13.7°C 94% 5.0 mph SW8.0 kmh SW 10.0 mph16.1 kmh 29.97 in1014.9 mb 0.02 in0.5 mm 0.00 in0.0 mm 0.02 in0.5 mm
02:27 AM 58.5°F14.7°C 56.8°F13.8°C 94% 5.0 mph SW8.0 kmh SW 10.0 mph16.1 kmh 29.98 in1015.2 mb 0.02 in0.5 mm 0.00 in0.0 mm 0.02 in0.5 mm
02:30 AM 58.5°F14.7°C 56.8°F13.8°C 94% 4.0 mph SW6.4 kmh SW 10.0 mph16.1 kmh 29.98 in1015.2 mb 0.02 in0.5 mm 0.00 in0.0 mm 0.02 in0.5 mm
02:33 AM 58.5°F14.7°C 56.8°F13.8°C 94% 4.0 mph SW6.4 kmh SW 10.0 mph16.1 kmh 29.97 in1014.9 mb 0.02 in0.5 mm 0.00 in0.0 mm 0.02 in0.5 mm
02:36 AM 58.5°F14.7°C 56.8°F13.8°C 94% 4.0 mph SW6.4 kmh SW 10.0 mph16.1 kmh 29.97 in1014.9 mb 0.02 in0.5 mm 0.00 in0.0 mm 0.02 in0.5 mm
02:39 AM 58.5°F14.7°C 56.8°F13.8°C 94% 4.0 mph SSW6.4 kmh SSW 10.0 mph16.1 kmh 29.97 in1014.9 mb 0.02 in0.5 mm 0.00 in0.0 mm 0.02 in0.5 mm
02:42 AM 58.5°F14.7°C 56.8°F13.8°C 94% 5.0 mph SSW8.0 kmh SSW 12.0 mph19.3 kmh 29.97 in1014.9 mb 0.01 in0.3 mm 0.00 in0.0 mm 0.02 in0.5 mm
02:45 AM 58.5°F14.7°C 56.7°F13.7°C 94% 5.0 mph SW8.0 kmh SW 12.0 mph19.3 kmh 29.97 in1014.9 mb 0.01 in0.3 mm 0.00 in0.0 mm 0.02 in0.5 mm
02:48 AM 58.3°F14.6°C 56.7°F13.7°C 94% 5.0 mph SW8.0 kmh SW 12.0 mph19.3 kmh 29.97 in1014.9 mb 0.01 in0.3 mm 0.00 in0.0 mm 0.02 in0.5 mm
02:51 AM 58.3°F14.6°C 56.7°F13.7°C 94% 5.0 mph SW8.0 kmh SW 12.0 mph19.3 kmh 29.97 in1014.9 mb 0.01 in0.3 mm 0.00 in0.0 mm 0.02 in0.5 mm
02:54 AM 58.3°F14.6°C 56.7°F13.7°C 94% 4.0 mph SW6.4 kmh SW 11.0 mph17.7 kmh 29.97 in1014.9 mb 0.01 in0.3 mm 0.00 in0.0 mm 0.02 in0.5 mm
02:57 AM 58.3°F14.6°C 56.8°F13.8°C 95% 3.0 mph SSW4.8 kmh SSW 8.0 mph12.9 kmh 29.97 in1014.9 mb 0.01 in0.3 mm 0.00 in0.0 mm 0.02 in0.5 mm
03:00 AM 58.3°F14.6°C 56.8°F13.8°C 95% 4.0 mph SSW6.4 kmh SSW 8.0 mph12.9 kmh 29.97 in1014.9 mb 0.01 in0.3 mm 0.00 in0.0 mm 0.02 in0.5 mm
03:03 AM 58.5°F14.7°C 57.0°F13.9°C 95% 4.0 mph S6.4 kmh S 8.0 mph12.9 kmh 29.97 in1014.9 mb 0.01 in0.3 mm 0.00 in0.0 mm 0.02 in0.5 mm
03:06 AM 58.3°F14.6°C 56.8°F13.8°C 95% 4.0 mph S6.4 kmh S 8.0 mph12.9 kmh 29.97 in1014.9 mb 0.01 in0.3 mm 0.00 in0.0 mm 0.02 in0.5 mm
03:09 AM 58.3°F14.6°C 56.8°F13.8°C 95% 4.0 mph S6.4 kmh S 8.0 mph12.9 kmh 29.97 in1014.9 mb 0.01 in0.3 mm 0.00 in0.0 mm 0.02 in0.5 mm
03:12 AM 58.3°F14.6°C 56.8°F13.8°C 95% 3.0 mph S4.8 kmh S 6.0 mph9.7 kmh 29.97 in1014.9 mb 0.01 in0.3 mm 0.00 in0.0 mm 0.02 in0.5 mm
03:15 AM 58.3°F14.6°C 56.8°F13.8°C 95% 3.0 mph S4.8 kmh S 6.0 mph9.7 kmh 29.97 in1014.9 mb 0.00 in0.0 mm 0.00 in0.0 mm 0.02 in0.5 mm
03:18 AM 58.3°F14.6°C 56.8°F13.8°C 95% 3.0 mph SSW4.8 kmh SSW 6.0 mph9.7 kmh 29.98 in1015.2 mb 0.00 in0.0 mm 0.00 in0.0 mm 0.02 in0.5 mm
03:21 AM 58.3°F14.6°C 56.8°F13.8°C 95% 3.0 mph SW4.8 kmh SW 6.0 mph9.7 kmh 29.98 in1015.2 mb 0.00 in0.0 mm 0.00 in0.0 mm 0.02 in0.5 mm
03:24 AM 58.3°F14.6°C 56.8°F13.8°C 95% 3.0 mph SW4.8 kmh SW 6.0 mph9.7 kmh 29.97 in1014.9 mb 0.00 in0.0 mm 0.00 in0.0 mm 0.02 in0.5 mm
03:27 AM 58.3°F14.6°C 56.8°F13.8°C 95% 3.0 mph SSW4.8 kmh SSW 7.0 mph11.3 kmh 29.97 in1014.9 mb 0.00 in0.0 mm 0.00 in0.0 mm 0.02 in0.5 mm
03:30 AM 58.5°F14.7°C 57.0°F13.9°C 95% 3.0 mph S4.8 kmh S 8.0 mph12.9 kmh 29.97 in1014.9 mb 0.00 in0.0 mm 0.00 in0.0 mm 0.02 in0.5 mm
03:33 AM 58.5°F14.7°C 57.0°F13.9°C 95% 3.0 mph S4.8 kmh S 8.0 mph12.9 kmh 29.97 in1014.9 mb 0.00 in0.0 mm 0.00 in0.0 mm 0.02 in0.5 mm
03:36 AM 58.5°F14.7°C 57.0°F13.9°C 95% 3.0 mph SSW4.8 kmh SSW 8.0 mph12.9 kmh 29.97 in1014.9 mb 0.00 in0.0 mm 0.00 in0.0 mm 0.02 in0.5 mm
03:39 AM 58.5°F14.7°C 57.0°F13.9°C 95% 4.0 mph SSW6.4 kmh SSW 8.0 mph12.9 kmh 29.97 in1014.9 mb 0.00 in0.0 mm 0.00 in0.0 mm 0.02 in0.5 mm
03:42 AM 58.5°F14.7°C 57.0°F13.9°C 95% 3.0 mph SW4.8 kmh SW 6.0 mph9.7 kmh 29.97 in1014.9 mb 0.00 in0.0 mm 0.00 in0.0 mm 0.02 in0.5 mm
03:45 AM 58.5°F14.7°C 57.0°F13.9°C 95% 3.0 mph SW4.8 kmh SW 6.0 mph9.7 kmh 29.97 in1014.9 mb 0.00 in0.0 mm 0.00 in0.0 mm 0.02 in0.5 mm
03:48 AM 58.5°F14.7°C 57.0°F13.9°C 95% 3.0 mph SSW4.8 kmh SSW 6.0 mph9.7 kmh 29.97 in1014.9 mb 0.00 in0.0 mm 0.00 in0.0 mm 0.02 in0.5 mm
03:51 AM 58.5°F14.7°C 57.0°F13.9°C 95% 3.0 mph SSW4.8 kmh SSW 5.0 mph8.0 kmh 29.97 in1014.9 mb 0.00 in0.0 mm 0.00 in0.0 mm 0.02 in0.5 mm
03:54 AM 58.5°F14.7°C 57.0°F13.9°C 95% 3.0 mph S4.8 kmh S 5.0 mph8.0 kmh 29.97 in1014.9 mb 0.00 in0.0 mm 0.00 in0.0 mm 0.02 in0.5 mm
03:57 AM 58.5°F14.7°C 57.0°F13.9°C 95% 3.0 mph S4.8 kmh S 5.0 mph8.0 kmh 29.97 in1014.9 mb 0.00 in0.0 mm 0.00 in0.0 mm 0.02 in0.5 mm
04:00 AM 58.6°F14.8°C 57.2°F14.0°C 95% 3.0 mph S4.8 kmh S 5.0 mph8.0 kmh 29.97 in1014.9 mb 0.00 in0.0 mm 0.00 in0.0 mm 0.02 in0.5 mm
04:03 AM 58.5°F14.7°C 57.0°F13.9°C 95% 3.0 mph S4.8 kmh S 6.0 mph9.7 kmh 29.98 in1015.2 mb 0.00 in0.0 mm 0.00 in0.0 mm 0.02 in0.5 mm
04:06 AM 58.5°F14.7°C 57.0°F13.9°C 95% 3.0 mph S4.8 kmh S 6.0 mph9.7 kmh 29.98 in1015.2 mb 0.00 in0.0 mm 0.00 in0.0 mm 0.02 in0.5 mm
04:09 AM 58.5°F14.7°C 57.0°F13.9°C 95% 4.0 mph S6.4 kmh S 7.0 mph11.3 kmh 29.97 in1014.9 mb 0.00 in0.0 mm 0.00 in0.0 mm 0.02 in0.5 mm
04:12 AM 58.5°F14.7°C 57.0°F13.9°C 95% 4.0 mph S6.4 kmh S 7.0 mph11.3 kmh 29.97 in1014.9 mb 0.00 in0.0 mm 0.00 in0.0 mm 0.02 in0.5 mm
04:15 AM 58.5°F14.7°C 57.0°F13.9°C 95% 4.0 mph S6.4 kmh S 7.0 mph11.3 kmh 29.97 in1014.9 mb 0.00 in0.0 mm 0.00 in0.0 mm 0.02 in0.5 mm
04:18 AM 58.6°F14.8°C 57.2°F14.0°C 95% 5.0 mph S8.0 kmh S 9.0 mph14.5 kmh 29.97 in1014.9 mb 0.00 in0.0 mm 0.00 in0.0 mm 0.02 in0.5 mm
04:21 AM 58.6°F14.8°C 57.2°F14.0°C 95% 5.0 mph S8.0 kmh S 9.0 mph14.5 kmh 29.97 in1014.9 mb 0.00 in0.0 mm 0.00 in0.0 mm 0.02 in0.5 mm
04:24 AM 58.6°F14.8°C 57.2°F14.0°C 95% 5.0 mph S8.0 kmh S 9.0 mph14.5 kmh 29.97 in1014.9 mb 0.00 in0.0 mm 0.00 in0.0 mm 0.02 in0.5 mm
04:27 AM 58.6°F14.8°C 57.2°F14.0°C 95% 5.0 mph S8.0 kmh S 10.0 mph16.1 kmh 29.97 in1014.9 mb 0.00 in0.0 mm 0.00 in0.0 mm 0.02 in0.5 mm
04:30 AM 58.8°F14.9°C 57.4°F14.1°C 95% 6.0 mph S9.7 kmh S 10.0 mph16.1 kmh 29.97 in1014.9 mb 0.00 in0.0 mm 0.00 in0.0 mm 0.02 in0.5 mm
04:33 AM 58.8°F14.9°C 57.6°F14.2°C 95% 7.0 mph S11.3 kmh S 11.0 mph17.7 kmh 29.97 in1014.9 mb 0.00 in0.0 mm 0.00 in0.0 mm 0.02 in0.5 mm
04:36 AM 59.0°F15.0°C 57.9°F14.4°C 96% 8.0 mph S12.9 kmh S 14.0 mph22.5 kmh 29.97 in1014.9 mb 0.00 in0.0 mm 0.00 in0.0 mm 0.02 in0.5 mm
04:39 AM 59.0°F15.0°C 57.9°F14.4°C 96% 7.0 mph S11.3 kmh S 14.0 mph22.5 kmh 29.97 in1014.9 mb 0.00 in0.0 mm 0.00 in0.0 mm 0.02 in0.5 mm
04:42 AM 59.0°F15.0°C 57.6°F14.2°C 95% 7.0 mph S11.3 kmh S 14.0 mph22.5 kmh 29.97 in1014.9 mb 0.00 in0.0 mm 0.00 in0.0 mm 0.02 in0.5 mm
04:45 AM 59.0°F15.0°C 57.6°F14.2°C 95% 6.0 mph S9.7 kmh S 13.0 mph20.9 kmh 29.97 in1014.9 mb 0.00 in0.0 mm 0.00 in0.0 mm 0.02 in0.5 mm
04:48 AM 58.8°F14.9°C 57.6°F14.2°C 95% 5.0 mph S8.0 kmh S 13.0 mph20.9 kmh 29.97 in1014.9 mb 0.00 in0.0 mm 0.00 in0.0 mm 0.02 in0.5 mm
04:51 AM 58.8°F14.9°C 57.4°F14.1°C 95% 6.0 mph S9.7 kmh S 13.0 mph20.9 kmh 29.97 in1014.9 mb 0.00 in0.0 mm 0.00 in0.0 mm 0.02 in0.5 mm
04:54 AM 58.8°F14.9°C 57.4°F14.1°C 95% 6.0 mph S9.7 kmh S 12.0 mph19.3 kmh 29.97 in1014.9 mb 0.00 in0.0 mm 0.00 in0.0 mm 0.02 in0.5 mm
04:57 AM 58.8°F14.9°C 57.4°F14.1°C 95% 6.0 mph S9.7 kmh S 12.0 mph19.3 kmh 29.97 in1014.9 mb 0.00 in0.0 mm 0.00 in0.0 mm 0.02 in0.5 mm
05:00 AM 58.6°F14.8°C 57.2°F14.0°C 95% 6.0 mph S9.7 kmh S 10.0 mph16.1 kmh 29.97 in1014.9 mb 0.00 in0.0 mm 0.00 in0.0 mm 0.02 in0.5 mm
05:03 AM 58.6°F14.8°C 57.2°F14.0°C 95% 6.0 mph S9.7 kmh S 11.0 mph17.7 kmh 29.97 in1014.9 mb 0.00 in0.0 mm 0.00 in0.0 mm 0.02 in0.5 mm
05:06 AM 58.6°F14.8°C 57.2°F14.0°C 95% 6.0 mph S9.7 kmh S 11.0 mph17.7 kmh 29.97 in1014.9 mb 0.00 in0.0 mm 0.00 in0.0 mm 0.02 in0.5 mm
05:09 AM 58.8°F14.9°C 57.4°F14.1°C 95% 7.0 mph S11.3 kmh S 11.0 mph17.7 kmh 29.97 in1014.9 mb 0.00 in0.0 mm 0.00 in0.0 mm 0.02 in0.5 mm
05:12 AM 58.8°F14.9°C 57.4°F14.1°C 95% 8.0 mph S12.9 kmh S 15.0 mph24.1 kmh 29.97 in1014.9 mb 0.00 in0.0 mm 0.00 in0.0 mm 0.02 in0.5 mm
05:15 AM 58.8°F14.9°C 57.4°F14.1°C 95% 8.0 mph S12.9 kmh S 15.0 mph24.1 kmh 29.97 in1014.9 mb 0.00 in0.0 mm 0.00 in0.0 mm 0.02 in0.5 mm
05:18 AM 58.8°F14.9°C 57.6°F14.2°C 95% 9.0 mph S14.5 kmh S 15.0 mph24.1 kmh 29.97 in1014.9 mb 0.00 in0.0 mm 0.00 in0.0 mm 0.02 in0.5 mm
05:21 AM 58.8°F14.9°C 58.3°F14.6°C 98% 9.0 mph S14.5 kmh S 15.0 mph24.1 kmh 29.97 in1014.9 mb 0.00 in0.0 mm 0.00 in0.0 mm 0.02 in0.5 mm
05:24 AM 58.8°F14.9°C 57.6°F14.2°C 95% 9.0 mph S14.5 kmh S 15.0 mph24.1 kmh 29.97 in1014.9 mb 0.00 in0.0 mm 0.00 in0.0 mm 0.02 in0.5 mm
05:27 AM 58.8°F14.9°C 57.6°F14.2°C 95% 9.0 mph S14.5 kmh S 17.0 mph27.4 kmh 29.98 in1015.2 mb 0.00 in0.0 mm 0.00 in0.0 mm 0.02 in0.5 mm
05:30 AM 58.8°F14.9°C 57.4°F14.1°C 95% 9.0 mph S14.5 kmh S 17.0 mph27.4 kmh 29.97 in1014.9 mb 0.00 in0.0 mm 0.00 in0.0 mm 0.02 in0.5 mm
05:33 AM 58.6°F14.8°C 57.2°F14.0°C 95% 10.0 mph S16.1 kmh S 17.0 mph27.4 kmh 29.97 in1014.9 mb 0.00 in0.0 mm 0.00 in0.0 mm 0.02 in0.5 mm
05:36 AM 58.6°F14.8°C 57.2°F14.0°C 95% 9.0 mph S14.5 kmh S 17.0 mph27.4 kmh 29.98 in1015.2 mb 0.00 in0.0 mm 0.00 in0.0 mm 0.02 in0.5 mm
05:39 AM 58.6°F14.8°C 57.2°F14.0°C 95% 8.0 mph S12.9 kmh S 17.0 mph27.4 kmh 29.98 in1015.2 mb 0.00 in0.0 mm 0.00 in0.0 mm 0.02 in0.5 mm
05:42 AM 58.6°F14.8°C 57.2°F14.0°C 95% 7.0 mph S11.3 kmh S 17.0 mph27.4 kmh 29.98 in1015.2 mb 0.00 in0.0 mm 0.00 in0.0 mm 0.02 in0.5 mm
05:45 AM 58.6°F14.8°C 57.2°F14.0°C 95% 6.0 mph SSW9.7 kmh SSW 14.0 mph22.5 kmh 29.98 in1015.2 mb 0.00 in0.0 mm 0.00 in0.0 mm 0.02 in0.5 mm
05:48 AM 58.6°F14.8°C 57.2°F14.0°C 95% 5.0 mph SW8.0 kmh SW 13.0 mph20.9 kmh 29.98 in1015.2 mb 0.00 in0.0 mm 0.00 in0.0 mm 0.02 in0.5 mm
05:51 AM 58.6°F14.8°C 57.2°F14.0°C 95% 5.0 mph SW8.0 kmh SW 10.0 mph16.1 kmh 29.98 in1015.2 mb 0.00 in0.0 mm 0.00 in0.0 mm 0.02 in0.5 mm
05:54 AM 58.6°F14.8°C 57.2°F14.0°C 95% 5.0 mph SW8.0 kmh SW 10.0 mph16.1 kmh 29.98 in1015.2 mb 0.00 in0.0 mm 0.00 in0.0 mm 0.02 in0.5 mm
05:57 AM 58.5°F14.7°C 57.0°F13.9°C 95% 4.0 mph SSW6.4 kmh SSW 10.0 mph16.1 kmh 29.98 in1015.2 mb 0.00 in0.0 mm 0.00 in0.0 mm 0.02 in0.5 mm
06:00 AM 58.5°F14.7°C 57.0°F13.9°C 95% 4.0 mph S6.4 kmh S 7.0 mph11.3 kmh 29.98 in1015.2 mb 0.00 in0.0 mm 0.00 in0.0 mm 0.02 in0.5 mm
06:03 AM 58.5°F14.7°C 57.0°F13.9°C 95% 4.0 mph S6.4 kmh S 7.0 mph11.3 kmh 29.98 in1015.2 mb 0.00 in0.0 mm 0.00 in0.0 mm 0.02 in0.5 mm
06:06 AM 58.5°F14.7°C 57.0°F13.9°C 95% 5.0 mph S8.0 kmh S 9.0 mph14.5 kmh 29.98 in1015.2 mb 0.00 in0.0 mm 0.00 in0.0 mm 0.02 in0.5 mm
06:09 AM 58.5°F14.7°C 57.0°F13.9°C 95% 6.0 mph S9.7 kmh S 9.0 mph14.5 kmh 29.98 in1015.2 mb 0.00 in0.0 mm 0.00 in0.0 mm 0.02 in0.5 mm
06:12 AM 58.5°F14.7°C 57.0°F13.9°C 95% 6.0 mph S9.7 kmh S 9.0 mph14.5 kmh 29.98 in1015.2 mb 0.00 in0.0 mm 0.00 in0.0 mm 0.02 in0.5 mm
06:15 AM 58.6°F14.8°C 57.2°F14.0°C 95% 6.0 mph S9.7 kmh S 9.0 mph14.5 kmh 29.98 in1015.2 mb 0.00 in0.0 mm 0.00 in0.0 mm 0.02 in0.5 mm
06:18 AM 58.6°F14.8°C 57.2°F14.0°C 95% 6.0 mph S9.7 kmh S 10.0 mph16.1 kmh 29.98 in1015.2 mb 0.00 in0.0 mm 0.00 in0.0 mm 0.02 in0.5 mm
06:21 AM 58.6°F14.8°C 57.2°F14.0°C 95% 6.0 mph S9.7 kmh S 10.0 mph16.1 kmh 29.98 in1015.2 mb 0.00 in0.0 mm 0.00 in0.0 mm 0.02 in0.5 mm
06:24 AM 58.6°F14.8°C 57.2°F14.0°C 95% 6.0 mph S9.7 kmh S 11.0 mph17.7 kmh 29.98 in1015.2 mb 0.00 in0.0 mm 0.00 in0.0 mm 0.02 in0.5 mm
06:27 AM 58.8°F14.9°C 57.4°F14.1°C 95% 7.0 mph S11.3 kmh S 16.0 mph25.7 kmh 29.98 in1015.2 mb 0.00 in0.0 mm 0.00 in0.0 mm 0.02 in0.5 mm
06:30 AM 59.0°F15.0°C 57.6°F14.2°C 95% 9.0 mph S14.5 kmh S 16.0 mph25.7 kmh 29.98 in1015.2 mb 0.00 in0.0 mm 0.00 in0.0 mm 0.02 in0.5 mm
06:33 AM 59.2°F15.1°C 57.9°F14.4°C 96% 10.0 mph S16.1 kmh S 16.0 mph25.7 kmh 29.98 in1015.2 mb 0.00 in0.0 mm 0.00 in0.0 mm 0.02 in0.5 mm
06:36 AM 59.2°F15.1°C 58.1°F14.5°C 96% 11.0 mph S17.7 kmh S 16.0 mph25.7 kmh 29.98 in1015.2 mb 0.01 in0.3 mm 0.20 in5.1 mm 0.02 in0.5 mm
06:39 AM 59.4°F15.2°C 57.9°F14.4°C 95% 11.0 mph S17.7 kmh S 16.0 mph25.7 kmh 29.98 in1015.2 mb 0.01 in0.3 mm 0.00 in0.0 mm 0.02 in0.5 mm
06:42 AM 59.4°F15.2°C 57.9°F14.4°C 95% 11.0 mph S17.7 kmh S 20.0 mph32.2 kmh 29.98 in1015.2 mb 0.01 in0.3 mm 0.00 in0.0 mm 0.02 in0.5 mm
06:45 AM 59.4°F15.2°C 57.9°F14.4°C 95% 12.0 mph S19.3 kmh S 20.0 mph32.2 kmh 29.98 in1015.2 mb 0.01 in0.3 mm 0.00 in0.0 mm 0.02 in0.5 mm
06:48 AM 59.4°F15.2°C 57.9°F14.4°C 95% 13.0 mph S20.9 kmh S 20.0 mph32.2 kmh 29.98 in1015.2 mb 0.01 in0.3 mm 0.00 in0.0 mm 0.02 in0.5 mm
06:51 AM 59.4°F15.2°C 57.9°F14.4°C 95% 13.0 mph S20.9 kmh S 18.0 mph29.0 kmh 29.98 in1015.2 mb 0.01 in0.3 mm 0.00 in0.0 mm 0.02 in0.5 mm
06:54 AM 59.4°F15.2°C 57.9°F14.4°C 95% 13.0 mph S20.9 kmh S 20.0 mph32.2 kmh 29.98 in1015.2 mb 0.01 in0.3 mm 0.00 in0.0 mm 0.02 in0.5 mm
06:57 AM 59.4°F15.2°C 57.9°F14.4°C 95% 13.0 mph S20.9 kmh S 20.0 mph32.2 kmh 29.98 in1015.2 mb 0.02 in0.5 mm 0.20 in5.1 mm 0.03 in0.8 mm
07:00 AM 59.4°F15.2°C 57.9°F14.4°C 95% 13.0 mph S20.9 kmh S 20.0 mph32.2 kmh 29.98 in1015.2 mb 0.02 in0.5 mm 0.00 in0.0 mm 0.03 in0.8 mm
07:03 AM 59.4°F15.2°C 57.9°F14.4°C 95% 12.0 mph S19.3 kmh S 19.0 mph30.6 kmh 29.98 in1015.2 mb 0.02 in0.5 mm 0.00 in0.0 mm 0.03 in0.8 mm
07:06 AM 59.4°F15.2°C 57.9°F14.4°C 95% 12.0 mph S19.3 kmh S 19.0 mph30.6 kmh 29.98 in1015.2 mb 0.02 in0.5 mm 0.00 in0.0 mm 0.03 in0.8 mm
07:09 AM 59.4°F15.2°C 57.9°F14.4°C 95% 11.0 mph S17.7 kmh S 19.0 mph30.6 kmh 29.98 in1015.2 mb 0.02 in0.5 mm 0.00 in0.0 mm 0.03 in0.8 mm
07:12 AM 59.4°F15.2°C 57.9°F14.4°C 95% 10.0 mph S16.1 kmh S 16.0 mph25.7 kmh 29.98 in1015.2 mb 0.02 in0.5 mm 0.00 in0.0 mm 0.03 in0.8 mm
07:15 AM 59.2°F15.1°C 57.7°F14.3°C 95% 10.0 mph SSE16.1 kmh SSE 16.0 mph25.7 kmh 29.98 in1015.2 mb 0.02 in0.5 mm 0.00 in0.0 mm 0.03 in0.8 mm
07:18 AM 59.0°F15.0°C 57.6°F14.2°C 95% 10.0 mph SSE16.1 kmh SSE 16.0 mph25.7 kmh 29.98 in1015.2 mb 0.02 in0.5 mm 0.00 in0.0 mm 0.03 in0.8 mm
07:21 AM 59.0°F15.0°C 57.6°F14.2°C 95% 10.0 mph SSE16.1 kmh SSE 16.0 mph25.7 kmh 29.98 in1015.2 mb 0.02 in0.5 mm 0.00 in0.0 mm 0.03 in0.8 mm
07:24 AM 58.8°F14.9°C 58.3°F14.6°C 98% 11.0 mph SSE17.7 kmh SSE 16.0 mph25.7 kmh 29.98 in1015.2 mb 0.02 in0.5 mm 0.00 in0.0 mm 0.03 in0.8 mm
07:27 AM 58.8°F14.9°C 58.3°F14.6°C 98% 11.0 mph SSE17.7 kmh SSE 16.0 mph25.7 kmh 29.98 in1015.2 mb 0.02 in0.5 mm 0.00 in0.0 mm 0.03 in0.8 mm
07:30 AM 58.8°F14.9°C 57.7°F14.3°C 96% 11.0 mph SSE17.7 kmh SSE 16.0 mph25.7 kmh 29.98 in1015.2 mb 0.02 in0.5 mm 0.00 in0.0 mm 0.03 in0.8 mm
07:33 AM 58.8°F14.9°C 57.7°F14.3°C 96% 11.0 mph SSE17.7 kmh SSE 14.0 mph22.5 kmh 29.98 in1015.2 mb 0.02 in0.5 mm 0.00 in0.0 mm 0.03 in0.8 mm
07:36 AM 58.8°F14.9°C 57.7°F14.3°C 96% 11.0 mph SSE17.7 kmh SSE 14.0 mph22.5 kmh 29.98 in1015.2 mb 0.01 in0.3 mm 0.00 in0.0 mm 0.03 in0.8 mm
07:39 AM 59.0°F15.0°C 57.6°F14.2°C 95% 11.0 mph SSE17.7 kmh SSE 15.0 mph24.1 kmh 29.98 in1015.2 mb 0.01 in0.3 mm 0.00 in0.0 mm 0.03 in0.8 mm
07:42 AM 59.2°F15.1°C 57.9°F14.4°C 96% 11.0 mph SSE17.7 kmh SSE 15.0 mph24.1 kmh 29.98 in1015.2 mb 0.01 in0.3 mm 0.00 in0.0 mm 0.03 in0.8 mm
07:45 AM 59.2°F15.1°C 57.9°F14.4°C 96% 11.0 mph SSE17.7 kmh SSE 15.0 mph24.1 kmh 29.98 in1015.2 mb 0.01 in0.3 mm 0.00 in0.0 mm 0.03 in0.8 mm
07:48 AM 59.2°F15.1°C 58.1°F14.5°C 96% 11.0 mph SSE17.7 kmh SSE 16.0 mph25.7 kmh 29.98 in1015.2 mb 0.01 in0.3 mm 0.00 in0.0 mm 0.03 in0.8 mm
07:51 AM 59.4°F15.2°C 58.1°F14.5°C 96% 11.0 mph SSE17.7 kmh SSE 16.0 mph25.7 kmh 29.98 in1015.2 mb 0.01 in0.3 mm 0.00 in0.0 mm 0.03 in0.8 mm
07:54 AM 59.4°F15.2°C 58.3°F14.6°C 96% 11.0 mph SSE17.7 kmh SSE 16.0 mph25.7 kmh 29.98 in1015.2 mb 0.01 in0.3 mm 0.00 in0.0 mm 0.03 in0.8 mm
07:57 AM 59.5°F15.3°C 58.5°F14.7°C 96% 11.0 mph S17.7 kmh S 17.0 mph27.4 kmh 29.98 in1015.2 mb 0.00 in0.0 mm 0.00 in0.0 mm 0.03 in0.8 mm
08:00 AM 59.7°F15.4°C 58.6°F14.8°C 96% 12.0 mph S19.3 kmh S 19.0 mph30.6 kmh 29.98 in1015.2 mb 0.00 in0.0 mm 0.00 in0.0 mm 0.03 in0.8 mm
08:03 AM 59.9°F15.5°C 58.8°F14.9°C 96% 13.0 mph S20.9 kmh S 20.0 mph32.2 kmh 29.97 in1014.9 mb 0.00 in0.0 mm 0.00 in0.0 mm 0.03 in0.8 mm
08:06 AM 60.1°F15.6°C 59.0°F15.0°C 96% 14.0 mph S22.5 kmh S 20.0 mph32.2 kmh 29.97 in1014.9 mb 0.00 in0.0 mm 0.00 in0.0 mm 0.03 in0.8 mm
08:09 AM 60.1°F15.6°C 59.0°F15.0°C 96% 14.0 mph S22.5 kmh S 20.0 mph32.2 kmh 29.97 in1014.9 mb 0.00 in0.0 mm 0.00 in0.0 mm 0.03 in0.8 mm
08:12 AM 60.1°F15.6°C 59.0°F15.0°C 96% 14.0 mph S22.5 kmh S 23.0 mph37.0 kmh 29.97 in1014.9 mb 0.00 in0.0 mm 0.00 in0.0 mm 0.03 in0.8 mm
08:15 AM 60.3°F15.7°C 59.0°F15.0°C 96% 15.0 mph S24.1 kmh S 23.0 mph37.0 kmh 29.97 in1014.9 mb 0.00 in0.0 mm 0.00 in0.0 mm 0.03 in0.8 mm
08:18 AM 60.3°F15.7°C 59.0°F15.0°C 96% 15.0 mph S24.1 kmh S 23.0 mph37.0 kmh 29.97 in1014.9 mb 0.00 in0.0 mm 0.00 in0.0 mm 0.03 in0.8 mm
08:21 AM 60.3°F15.7°C 59.0°F15.0°C 96% 16.0 mph S25.7 kmh S 23.0 mph37.0 kmh 29.97 in1014.9 mb 0.00 in0.0 mm 0.00 in0.0 mm 0.03 in0.8 mm
08:24 AM 60.3°F15.7°C 59.2°F15.1°C 96% 16.0 mph S25.7 kmh S 23.0 mph37.0 kmh 29.97 in1014.9 mb 0.00 in0.0 mm 0.00 in0.0 mm 0.03 in0.8 mm
08:27 AM 60.3°F15.7°C 59.2°F15.1°C 96% 16.0 mph S25.7 kmh S 24.0 mph38.6 kmh 29.97 in1014.9 mb 0.00 in0.0 mm 0.00 in0.0 mm 0.03 in0.8 mm
08:30 AM 60.4°F15.8°C 59.2°F15.1°C 96% 16.0 mph S25.7 kmh S 24.0 mph38.6 kmh 29.97 in1014.9 mb 0.00 in0.0 mm 0.00 in0.0 mm 0.03 in0.8 mm
08:33 AM 60.4°F15.8°C 59.2°F15.1°C 96% 16.0 mph S25.7 kmh S 25.0 mph40.2 kmh 29.98 in1015.2 mb 0.00 in0.0 mm 0.00 in0.0 mm 0.03 in0.8 mm
08:36 AM 60.4°F15.8°C 59.0°F15.0°C 95% 16.0 mph S25.7 kmh S 25.0 mph40.2 kmh 29.98 in1015.2 mb 0.00 in0.0 mm 0.00 in0.0 mm 0.03 in0.8 mm
08:39 AM 60.4°F15.8°C 59.0°F15.0°C 95% 16.0 mph S25.7 kmh S 25.0 mph40.2 kmh 29.98 in1015.2 mb 0.00 in0.0 mm 0.00 in0.0 mm 0.03 in0.8 mm
08:42 AM 60.4°F15.8°C 59.0°F15.0°C 95% 16.0 mph S25.7 kmh S 25.0 mph40.2 kmh 29.97 in1014.9 mb 0.00 in0.0 mm 0.00 in0.0 mm 0.03 in0.8 mm
08:45 AM 60.4°F15.8°C 59.0°F15.0°C 95% 16.0 mph S25.7 kmh S 24.0 mph38.6 kmh 29.97 in1014.9 mb 0.00 in0.0 mm 0.00 in0.0 mm 0.03 in0.8 mm
08:48 AM 60.6°F15.9°C 59.2°F15.1°C 95% 16.0 mph S25.7 kmh S 24.0 mph38.6 kmh 29.97 in1014.9 mb 0.00 in0.0 mm 0.00 in0.0 mm 0.03 in0.8 mm
08:51 AM 60.6°F15.9°C 59.2°F15.1°C 95% 16.0 mph S25.7 kmh S 24.0 mph38.6 kmh 29.97 in1014.9 mb 0.00 in0.0 mm 0.00 in0.0 mm 0.03 in0.8 mm
08:54 AM 60.6°F15.9°C 59.2°F15.1°C 95% 15.0 mph S24.1 kmh S 24.0 mph38.6 kmh 29.98 in1015.2 mb 0.00 in0.0 mm 0.00 in0.0 mm 0.03 in0.8 mm
08:57 AM 60.8°F16.0°C 59.4°F15.2°C 95% 14.0 mph S22.5 kmh S 22.0 mph35.4 kmh 29.97 in1014.9 mb 0.00 in0.0 mm 0.00 in0.0 mm 0.03 in0.8 mm
09:00 AM 61.0°F16.1°C 59.5°F15.3°C 95% 13.0 mph S20.9 kmh S 22.0 mph35.4 kmh 29.97 in1014.9 mb 0.00 in0.0 mm 0.00 in0.0 mm 0.03 in0.8 mm
09:06 AM 61.2°F16.2°C 59.7°F15.4°C 95% 13.0 mph S20.9 kmh S 21.0 mph33.8 kmh 29.97 in1014.9 mb 0.00 in0.0 mm 0.00 in0.0 mm 0.03 in0.8 mm
09:09 AM 61.2°F16.2°C 59.7°F15.4°C 95% 13.0 mph S20.9 kmh S 22.0 mph35.4 kmh 29.97 in1014.9 mb 0.00 in0.0 mm 0.00 in0.0 mm 0.03 in0.8 mm
09:12 AM 61.2°F16.2°C 59.7°F15.4°C 95% 14.0 mph S22.5 kmh S 22.0 mph35.4 kmh 29.97 in1014.9 mb 0.00 in0.0 mm 0.00 in0.0 mm 0.03 in0.8 mm
09:15 AM 61.2°F16.2°C 59.4°F15.2°C 94% 15.0 mph S24.1 kmh S 25.0 mph40.2 kmh 29.97 in1014.9 mb 0.00 in0.0 mm 0.00 in0.0 mm 0.03 in0.8 mm
09:18 AM 61.2°F16.2°C 59.4°F15.2°C 94% 16.0 mph S25.7 kmh S 25.0 mph40.2 kmh 29.97 in1014.9 mb 0.00 in0.0 mm 0.00 in0.0 mm 0.03 in0.8 mm
09:21 AM 61.2°F16.2°C 59.5°F15.3°C 94% 16.0 mph S25.7 kmh S 25.0 mph40.2 kmh 29.97 in1014.9 mb 0.00 in0.0 mm 0.00 in0.0 mm 0.03 in0.8 mm
09:24 AM 61.2°F16.2°C 59.5°F15.3°C 94% 16.0 mph S25.7 kmh S 25.0 mph40.2 kmh 29.97 in1014.9 mb 0.00 in0.0 mm 0.00 in0.0 mm 0.03 in0.8 mm
09:27 AM 61.3°F16.3°C 59.5°F15.3°C 94% 16.0 mph S25.7 kmh S 25.0 mph40.2 kmh 29.97 in1014.9 mb 0.00 in0.0 mm 0.00 in0.0 mm 0.03 in0.8 mm
09:30 AM 61.3°F16.3°C 59.5°F15.3°C 94% 16.0 mph S25.7 kmh S 25.0 mph40.2 kmh 29.97 in1014.9 mb 0.00 in0.0 mm 0.00 in0.0 mm 0.03 in0.8 mm
09:33 AM 61.3°F16.3°C 59.5°F15.3°C 94% 16.0 mph S25.7 kmh S 25.0 mph40.2 kmh 29.97 in1014.9 mb 0.00 in0.0 mm 0.00 in0.0 mm 0.03 in0.8 mm
09:36 AM 61.3°F16.3°C 59.5°F15.3°C 94% 17.0 mph S27.4 kmh S 27.0 mph43.5 kmh 29.97 in1014.9 mb 0.00 in0.0 mm 0.00 in0.0 mm 0.03 in0.8 mm
09:39 AM 61.5°F16.4°C 59.7°F15.4°C 94% 17.0 mph S27.4 kmh S 27.0 mph43.5 kmh 29.97 in1014.9 mb 0.00 in0.0 mm 0.00 in0.0 mm 0.03 in0.8 mm
09:42 AM 61.5°F16.4°C 59.9°F15.5°C 94% 18.0 mph S29.0 kmh S 27.0 mph43.5 kmh 29.96 in1014.6 mb 0.00 in0.0 mm 0.00 in0.0 mm 0.03 in0.8 mm
09:45 AM 61.7°F16.5°C 59.7°F15.4°C 93% 19.0 mph S30.6 kmh S 29.0 mph46.7 kmh 29.96 in1014.6 mb 0.00 in0.0 mm 0.00 in0.0 mm 0.03 in0.8 mm
09:48 AM 61.7°F16.5°C 59.7°F15.4°C 93% 19.0 mph S30.6 kmh S 29.0 mph46.7 kmh 29.96 in1014.6 mb 0.00 in0.0 mm 0.00 in0.0 mm 0.03 in0.8 mm
09:51 AM 61.7°F16.5°C 59.7°F15.4°C 93% 19.0 mph S30.6 kmh S 29.0 mph46.7 kmh 29.96 in1014.6 mb 0.00 in0.0 mm 0.00 in0.0 mm 0.03 in0.8 mm
09:54 AM 61.7°F16.5°C 59.7°F15.4°C 93% 18.0 mph S29.0 kmh S 28.0 mph45.1 kmh 29.96 in1014.6 mb 0.00 in0.0 mm 0.00 in0.0 mm 0.03 in0.8 mm
09:57 AM 61.5°F16.4°C 59.5°F15.3°C 93% 17.0 mph S27.4 kmh S 27.0 mph43.5 kmh 29.96 in1014.6 mb 0.00 in0.0 mm 0.00 in0.0 mm 0.03 in0.8 mm
10:00 AM 61.5°F16.4°C 59.2°F15.1°C 92% 17.0 mph S27.4 kmh S 27.0 mph43.5 kmh 29.96 in1014.6 mb 0.00 in0.0 mm 0.00 in0.0 mm 0.03 in0.8 mm
10:03 AM 61.3°F16.3°C 59.0°F15.0°C 92% 18.0 mph S29.0 kmh S 29.0 mph46.7 kmh 29.96 in1014.6 mb 0.00 in0.0 mm 0.00 in0.0 mm 0.03 in0.8 mm
10:06 AM 61.2°F16.2°C 59.2°F15.1°C 93% 19.0 mph S30.6 kmh S 30.0 mph48.3 kmh 29.96 in1014.6 mb 0.01 in0.3 mm 0.20 in5.1 mm 0.04 in1.0 mm
10:09 AM 61.2°F16.2°C 59.0°F15.0°C 93% 20.0 mph S32.2 kmh S 30.0 mph48.3 kmh 29.96 in1014.6 mb 0.01 in0.3 mm 0.00 in0.0 mm 0.04 in1.0 mm
10:12 AM 61.0°F16.1°C 59.0°F15.0°C 93% 19.0 mph S30.6 kmh S 30.0 mph48.3 kmh 29.96 in1014.6 mb 0.01 in0.3 mm 0.00 in0.0 mm 0.04 in1.0 mm
10:15 AM 60.8°F16.0°C 58.8°F14.9°C 93% 19.0 mph S30.6 kmh S 29.0 mph46.7 kmh 29.96 in1014.6 mb 0.02 in0.5 mm 0.20 in5.1 mm 0.05 in1.3 mm
10:18 AM 60.6°F15.9°C 59.0°F15.0°C 94% 18.0 mph S29.0 kmh S 29.0 mph46.7 kmh 29.96 in1014.6 mb 0.02 in0.5 mm 0.00 in0.0 mm 0.06 in1.5 mm
10:21 AM 60.6°F15.9°C 59.0°F15.0°C 94% 19.0 mph S30.6 kmh S 31.0 mph49.9 kmh 29.96 in1014.6 mb 0.02 in0.5 mm 0.00 in0.0 mm 0.06 in1.5 mm
10:24 AM 60.6°F15.9°C 58.8°F14.9°C 94% 19.0 mph S30.6 kmh S 31.0 mph49.9 kmh 29.96 in1014.6 mb 0.02 in0.5 mm 0.00 in0.0 mm 0.06 in1.5 mm
10:27 AM 60.6°F15.9°C 59.0°F15.0°C 94% 18.0 mph S29.0 kmh S 31.0 mph49.9 kmh 29.96 in1014.6 mb 0.02 in0.5 mm 0.00 in0.0 mm 0.06 in1.5 mm
10:30 AM 60.6°F15.9°C 58.8°F14.9°C 94% 17.0 mph S27.4 kmh S 25.0 mph40.2 kmh 29.96 in1014.6 mb 0.02 in0.5 mm 0.00 in0.0 mm 0.06 in1.5 mm
10:33 AM 60.6°F15.9°C 59.2°F15.1°C 95% 17.0 mph S27.4 kmh S 25.0 mph40.2 kmh 29.96 in1014.6 mb 0.03 in0.8 mm 0.20 in5.1 mm 0.06 in1.5 mm
10:36 AM 60.4°F15.8°C 58.8°F14.9°C 94% 18.0 mph S29.0 kmh S 25.0 mph40.2 kmh 29.97 in1014.9 mb 0.03 in0.8 mm 0.00 in0.0 mm 0.06 in1.5 mm
10:39 AM 60.3°F15.7°C 58.6°F14.8°C 94% 19.0 mph S30.6 kmh S 32.0 mph51.5 kmh 29.96 in1014.6 mb 0.03 in0.8 mm 0.00 in0.0 mm 0.06 in1.5 mm
10:42 AM 60.3°F15.7°C 58.5°F14.7°C 94% 20.0 mph S32.2 kmh S 32.0 mph51.5 kmh 29.96 in1014.6 mb 0.03 in0.8 mm 0.00 in0.0 mm 0.06 in1.5 mm
10:45 AM 60.1°F15.6°C 58.3°F14.6°C 94% 21.0 mph S33.8 kmh S 32.0 mph51.5 kmh 29.96 in1014.6 mb 0.03 in0.8 mm 0.00 in0.0 mm 0.06 in1.5 mm
10:48 AM 60.1°F15.6°C 58.3°F14.6°C 94% 20.0 mph S32.2 kmh S 32.0 mph51.5 kmh 29.96 in1014.6 mb 0.04 in1.0 mm 0.20 in5.1 mm 0.07 in1.8 mm
10:51 AM 60.1°F15.6°C 58.6°F14.8°C 95% 19.0 mph S30.6 kmh S 32.0 mph51.5 kmh 29.96 in1014.6 mb 0.04 in1.0 mm 0.00 in0.0 mm 0.07 in1.8 mm
10:54 AM 60.1°F15.6°C 58.6°F14.8°C 95% 17.0 mph S27.4 kmh S 29.0 mph46.7 kmh 29.96 in1014.6 mb 0.04 in1.0 mm 0.00 in0.0 mm 0.07 in1.8 mm
10:57 AM 60.1°F15.6°C 58.6°F14.8°C 95% 18.0 mph S29.0 kmh S 30.0 mph48.3 kmh 29.96 in1014.6 mb 0.04 in1.0 mm 0.00 in0.0 mm 0.07 in1.8 mm
11:00 AM 60.3°F15.7°C 58.8°F14.9°C 95% 19.0 mph S30.6 kmh S 31.0 mph49.9 kmh 29.95 in1014.2 mb 0.04 in1.0 mm 0.00 in0.0 mm 0.07 in1.8 mm
11:03 AM 60.3°F15.7°C 58.8°F14.9°C 95% 20.0 mph S32.2 kmh S 33.0 mph53.1 kmh 29.96 in1014.6 mb 0.04 in1.0 mm 0.00 in0.0 mm 0.07 in1.8 mm
11:06 AM 60.3°F15.7°C 58.8°F14.9°C 95% 21.0 mph S33.8 kmh S 33.0 mph53.1 kmh 29.96 in1014.6 mb 0.03 in0.8 mm 0.00 in0.0 mm 0.07 in1.8 mm
11:09 AM 60.3°F15.7°C 58.8°F14.9°C 95% 19.0 mph S30.6 kmh S 33.0 mph53.1 kmh 29.95 in1014.2 mb 0.03 in0.8 mm 0.00 in0.0 mm 0.07 in1.8 mm
11:12 AM 60.1°F15.6°C 58.6°F14.8°C 95% 18.0 mph S29.0 kmh S 31.0 mph49.9 kmh 29.95 in1014.2 mb 0.03 in0.8 mm 0.00 in0.0 mm 0.07 in1.8 mm
11:15 AM 60.1°F15.6°C 58.6°F14.8°C 95% 18.0 mph S29.0 kmh S 28.0 mph45.1 kmh 29.95 in1014.2 mb 0.02 in0.5 mm 0.00 in0.0 mm 0.08 in2.0 mm
11:18 AM 60.1°F15.6°C 58.6°F14.8°C 95% 17.0 mph S27.4 kmh S 27.0 mph43.5 kmh 29.95 in1014.2 mb 0.02 in0.5 mm 0.00 in0.0 mm 0.08 in2.0 mm
11:21 AM 59.9°F15.5°C 58.5°F14.7°C 95% 18.0 mph S29.0 kmh S 33.0 mph53.1 kmh 29.95 in1014.2 mb 0.02 in0.5 mm 0.00 in0.0 mm 0.08 in2.0 mm
11:24 AM 59.9°F15.5°C 58.5°F14.7°C 95% 19.0 mph S30.6 kmh S 33.0 mph53.1 kmh 29.95 in1014.2 mb 0.02 in0.5 mm 0.00 in0.0 mm 0.08 in2.0 mm
11:27 AM 59.9°F15.5°C 58.5°F14.7°C 95% 19.0 mph S30.6 kmh S 33.0 mph53.1 kmh 29.95 in1014.2 mb 0.02 in0.5 mm 0.00 in0.0 mm 0.08 in2.0 mm
11:30 AM 59.9°F15.5°C 58.5°F14.7°C 95% 19.0 mph S30.6 kmh S 32.0 mph51.5 kmh 29.95 in1014.2 mb 0.02 in0.5 mm 0.00 in0.0 mm 0.08 in2.0 mm
11:33 AM 59.9°F15.5°C 58.5°F14.7°C 95% 20.0 mph S32.2 kmh S 32.0 mph51.5 kmh 29.95 in1014.2 mb 0.02 in0.5 mm 0.00 in0.0 mm 0.09 in2.3 mm
11:36 AM 59.9°F15.5°C 58.5°F14.7°C 95% 18.0 mph S29.0 kmh S 28.0 mph45.1 kmh 29.95 in1014.2 mb 0.02 in0.5 mm 0.00 in0.0 mm 0.09 in2.3 mm
11:39 AM 59.9°F15.5°C 58.5°F14.7°C 95% 19.0 mph S30.6 kmh S 28.0 mph45.1 kmh 29.95 in1014.2 mb 0.02 in0.5 mm 0.00 in0.0 mm 0.09 in2.3 mm
11:42 AM 60.1°F15.6°C 58.6°F14.8°C 95% 18.0 mph S29.0 kmh S 30.0 mph48.3 kmh 29.95 in1014.2 mb 0.02 in0.5 mm 0.00 in0.0 mm 0.09 in2.3 mm
11:45 AM 60.1°F15.6°C 59.0°F15.0°C 96% 18.0 mph S29.0 kmh S 30.0 mph48.3 kmh 29.95 in1014.2 mb 0.02 in0.5 mm 0.00 in0.0 mm 0.09 in2.3 mm
11:48 AM 60.1°F15.6°C 59.0°F15.0°C 96% 18.0 mph S29.0 kmh S 30.0 mph48.3 kmh 29.95 in1014.2 mb 0.02 in0.5 mm 0.00 in0.0 mm 0.09 in2.3 mm
11:51 AM 60.1°F15.6°C 59.0°F15.0°C 96% 18.0 mph S29.0 kmh S 28.0 mph45.1 kmh 29.95 in1014.2 mb 0.02 in0.5 mm 0.00 in0.0 mm 0.09 in2.3 mm
11:54 AM 60.3°F15.7°C 59.0°F15.0°C 96% 18.0 mph S29.0 kmh S 28.0 mph45.1 kmh 29.95 in1014.2 mb 0.02 in0.5 mm 0.00 in0.0 mm 0.09 in2.3 mm
11:57 AM 60.3°F15.7°C 59.0°F15.0°C 96% 18.0 mph S29.0 kmh S 28.0 mph45.1 kmh 29.95 in1014.2 mb 0.02 in0.5 mm 0.00 in0.0 mm 0.09 in2.3 mm
12:00 PM 60.3°F15.7°C 59.2°F15.1°C 96% 19.0 mph S30.6 kmh S 28.0 mph45.1 kmh 29.95 in1014.2 mb 0.02 in0.5 mm 0.00 in0.0 mm 0.09 in2.3 mm
12:03 PM 60.4°F15.8°C 59.2°F15.1°C 96% 19.0 mph S30.6 kmh S 34.0 mph54.7 kmh 29.94 in1013.9 mb 0.03 in0.8 mm 0.20 in5.1 mm 0.10 in2.5 mm
12:06 PM 60.4°F15.8°C 59.2°F15.1°C 96% 19.0 mph S30.6 kmh S 34.0 mph54.7 kmh 29.95 in1014.2 mb 0.03 in0.8 mm 0.00 in0.0 mm 0.10 in2.5 mm
12:09 PM 60.6°F15.9°C 59.5°F15.3°C 96% 19.0 mph S30.6 kmh S 34.0 mph54.7 kmh 29.94 in1013.9 mb 0.03 in0.8 mm 0.00 in0.0 mm 0.10 in2.5 mm
12:12 PM 60.6°F15.9°C 59.5°F15.3°C 96% 19.0 mph S30.6 kmh S 34.0 mph54.7 kmh 29.94 in1013.9 mb 0.03 in0.8 mm 0.00 in0.0 mm 0.10 in2.5 mm
12:15 PM 60.6°F15.9°C 59.5°F15.3°C 96% 19.0 mph S30.6 kmh S 30.0 mph48.3 kmh 29.94 in1013.9 mb 0.03 in0.8 mm 0.00 in0.0 mm 0.11 in2.8 mm
12:18 PM 60.6°F15.9°C 59.5°F15.3°C 96% 20.0 mph S32.2 kmh S 32.0 mph51.5 kmh 29.94 in1013.9 mb 0.03 in0.8 mm 0.00 in0.0 mm 0.11 in2.8 mm
12:21 PM 60.6°F15.9°C 59.5°F15.3°C 96% 20.0 mph S32.2 kmh S 32.0 mph51.5 kmh 29.94 in1013.9 mb 0.03 in0.8 mm 0.00 in0.0 mm 0.11 in2.8 mm
12:24 PM 60.6°F15.9°C 59.5°F15.3°C 96% 20.0 mph S32.2 kmh S 32.0 mph51.5 kmh 29.94 in1013.9 mb 0.03 in0.8 mm 0.00 in0.0 mm 0.11 in2.8 mm
12:27 PM 60.6°F15.9°C 59.5°F15.3°C 96% 19.0 mph S30.6 kmh S 28.0 mph45.1 kmh 29.94 in1013.9 mb 0.03 in0.8 mm 0.00 in0.0 mm 0.11 in2.8 mm
12:30 PM 60.4°F15.8°C 59.4°F15.2°C 96% 20.0 mph S32.2 kmh S 37.0 mph59.5 kmh 29.93 in1013.5 mb 0.04 in1.0 mm 0.20 in5.1 mm 0.12 in3.0 mm
12:33 PM 60.6°F15.9°C 59.5°F15.3°C 96% 20.0 mph S32.2 kmh S 37.0 mph59.5 kmh 29.93 in1013.5 mb 0.03 in0.8 mm 0.00 in0.0 mm 0.12 in3.0 mm
12:36 PM 60.6°F15.9°C 59.5°F15.3°C 96% 21.0 mph S33.8 kmh S 37.0 mph59.5 kmh 29.93 in1013.5 mb 0.03 in0.8 mm 0.00 in0.0 mm 0.12 in3.0 mm
12:39 PM 60.6°F15.9°C 59.5°F15.3°C 96% 20.0 mph S32.2 kmh S 33.0 mph53.1 kmh 29.94 in1013.9 mb 0.03 in0.8 mm 0.00 in0.0 mm 0.12 in3.0 mm
12:42 PM 60.6°F15.9°C 59.5°F15.3°C 96% 20.0 mph S32.2 kmh S 33.0 mph53.1 kmh 29.93 in1013.5 mb 0.03 in0.8 mm 0.00 in0.0 mm 0.12 in3.0 mm
12:45 PM 60.6°F15.9°C 59.5°F15.3°C 96% 20.0 mph S32.2 kmh S 31.0 mph49.9 kmh 29.94 in1013.9 mb 0.03 in0.8 mm 0.00 in0.0 mm 0.12 in3.0 mm
12:48 PM 60.6°F15.9°C 59.5°F15.3°C 96% 21.0 mph S33.8 kmh S 33.0 mph53.1 kmh 29.94 in1013.9 mb 0.03 in0.8 mm 0.00 in0.0 mm 0.12 in3.0 mm
12:51 PM 60.6°F15.9°C 59.5°F15.3°C 96% 21.0 mph S33.8 kmh S 33.0 mph53.1 kmh 29.94 in1013.9 mb 0.03 in0.8 mm 0.00 in0.0 mm 0.12 in3.0 mm
12:54 PM 60.6°F15.9°C 59.5°F15.3°C 96% 20.0 mph S32.2 kmh S 33.0 mph53.1 kmh 29.94 in1013.9 mb 0.03 in0.8 mm 0.00 in0.0 mm 0.13 in3.3 mm
12:57 PM 60.8°F16.0°C 59.7°F15.4°C 96% 20.0 mph S32.2 kmh S 33.0 mph53.1 kmh 29.93 in1013.5 mb 0.03 in0.8 mm 0.00 in0.0 mm 0.13 in3.3 mm
01:00 PM 60.8°F16.0°C 59.7°F15.4°C 96% 19.0 mph S30.6 kmh S 27.0 mph43.5 kmh 29.94 in1013.9 mb 0.03 in0.8 mm 0.00 in0.0 mm 0.13 in3.3 mm
01:03 PM 60.8°F16.0°C 59.7°F15.4°C 96% 19.0 mph S30.6 kmh S 30.0 mph48.3 kmh 29.94 in1013.9 mb 0.03 in0.8 mm 0.00 in0.0 mm 0.13 in3.3 mm
01:06 PM 60.8°F16.0°C 59.7°F15.4°C 96% 19.0 mph S30.6 kmh S 30.0 mph48.3 kmh 29.94 in1013.9 mb 0.03 in0.8 mm 0.00 in0.0 mm 0.13 in3.3 mm
01:09 PM 60.8°F16.0°C 59.7°F15.4°C 96% 19.0 mph S30.6 kmh S 30.0 mph48.3 kmh 29.94 in1013.9 mb 0.03 in0.8 mm 0.00 in0.0 mm 0.13 in3.3 mm
01:12 PM 60.8°F16.0°C 59.7°F15.4°C 96% 19.0 mph S30.6 kmh S 32.0 mph51.5 kmh 29.93 in1013.5 mb 0.03 in0.8 mm 0.00 in0.0 mm 0.13 in3.3 mm
01:15 PM 61.0°F16.1°C 59.7°F15.4°C 96% 19.0 mph S30.6 kmh S 32.0 mph51.5 kmh 29.94 in1013.9 mb 0.02 in0.5 mm 0.00 in0.0 mm 0.13 in3.3 mm
01:18 PM 61.0°F16.1°C 59.7°F15.4°C 96% 19.0 mph S30.6 kmh S 32.0 mph51.5 kmh 29.93 in1013.5 mb 0.02 in0.5 mm 0.00 in0.0 mm 0.13 in3.3 mm
01:21 PM 61.0°F16.1°C 59.7°F15.4°C 96% 18.0 mph S29.0 kmh S 32.0 mph51.5 kmh 29.94 in1013.9 mb 0.02 in0.5 mm 0.00 in0.0 mm 0.13 in3.3 mm
01:24 PM 61.0°F16.1°C 59.7°F15.4°C 96% 18.0 mph S29.0 kmh S 26.0 mph41.8 kmh 29.93 in1013.5 mb 0.02 in0.5 mm 0.00 in0.0 mm 0.13 in3.3 mm
01:27 PM 61.0°F16.1°C 59.7°F15.4°C 96% 19.0 mph S30.6 kmh S 29.0 mph46.7 kmh 29.93 in1013.5 mb 0.03 in0.8 mm 0.20 in5.1 mm 0.14 in3.6 mm
01:30 PM 61.0°F16.1°C 60.1°F15.6°C 97% 20.0 mph S32.2 kmh S 32.0 mph51.5 kmh 29.93 in1013.5 mb 0.02 in0.5 mm 0.00 in0.0 mm 0.14 in3.6 mm
01:33 PM 61.2°F16.2°C 60.3°F15.7°C 97% 21.0 mph S33.8 kmh S 32.0 mph51.5 kmh 29.93 in1013.5 mb 0.02 in0.5 mm 0.00 in0.0 mm 0.14 in3.6 mm
01:36 PM 61.2°F16.2°C 60.3°F15.7°C 97% 20.0 mph S32.2 kmh S 32.0 mph51.5 kmh 29.93 in1013.5 mb 0.02 in0.5 mm 0.00 in0.0 mm 0.14 in3.6 mm
01:39 PM 61.2°F16.2°C 60.3°F15.7°C 97% 19.0 mph S30.6 kmh S 31.0 mph49.9 kmh 29.93 in1013.5 mb 0.03 in0.8 mm 0.20 in5.1 mm 0.15 in3.8 mm
01:42 PM 61.3°F16.3°C 60.4°F15.8°C 97% 19.0 mph S30.6 kmh S 31.0 mph49.9 kmh 29.93 in1013.5 mb 0.03 in0.8 mm 0.00 in0.0 mm 0.15 in3.8 mm
01:45 PM 61.3°F16.3°C 60.4°F15.8°C 97% 19.0 mph S30.6 kmh S 29.0 mph46.7 kmh 29.93 in1013.5 mb 0.03 in0.8 mm 0.00 in0.0 mm 0.15 in3.8 mm
01:48 PM 61.5°F16.4°C 60.6°F15.9°C 97% 19.0 mph S30.6 kmh S 28.0 mph45.1 kmh 29.93 in1013.5 mb 0.03 in0.8 mm 0.00 in0.0 mm 0.15 in3.8 mm
01:51 PM 61.5°F16.4°C 60.6°F15.9°C 97% 19.0 mph S30.6 kmh S 30.0 mph48.3 kmh 29.92 in1013.2 mb 0.03 in0.8 mm 0.00 in0.0 mm 0.15 in3.8 mm
01:54 PM 61.7°F16.5°C 60.8°F16.0°C 97% 18.0 mph S29.0 kmh S 30.0 mph48.3 kmh 29.93 in1013.5 mb 0.02 in0.5 mm 0.00 in0.0 mm 0.15 in3.8 mm
01:57 PM 61.7°F16.5°C 60.8°F16.0°C 97% 18.0 mph S29.0 kmh S 30.0 mph48.3 kmh 29.93 in1013.5 mb 0.02 in0.5 mm 0.00 in0.0 mm 0.15 in3.8 mm
02:00 PM 61.9°F16.6°C 61.0°F16.1°C 97% 19.0 mph S30.6 kmh S 32.0 mph51.5 kmh 29.93 in1013.5 mb 0.02 in0.5 mm 0.00 in0.0 mm 0.15 in3.8 mm
02:03 PM 62.1°F16.7°C 61.2°F16.2°C 97% 19.0 mph S30.6 kmh S 35.0 mph56.3 kmh 29.93 in1013.5 mb 0.02 in0.5 mm 0.00 in0.0 mm 0.15 in3.8 mm
02:06 PM 62.1°F16.7°C 61.2°F16.2°C 97% 19.0 mph S30.6 kmh S 35.0 mph56.3 kmh 29.93 in1013.5 mb 0.02 in0.5 mm 0.00 in0.0 mm 0.15 in3.8 mm
02:09 PM 62.1°F16.7°C 61.2°F16.2°C 97% 18.0 mph S29.0 kmh S 35.0 mph56.3 kmh 29.92 in1013.2 mb 0.02 in0.5 mm 0.00 in0.0 mm 0.15 in3.8 mm
02:12 PM 62.1°F16.7°C 61.2°F16.2°C 97% 17.0 mph S27.4 kmh S 29.0 mph46.7 kmh 29.93 in1013.5 mb 0.02 in0.5 mm 0.00 in0.0 mm 0.15 in3.8 mm
02:15 PM 62.1°F16.7°C 61.2°F16.2°C 97% 17.0 mph S27.4 kmh S 29.0 mph46.7 kmh 29.93 in1013.5 mb 0.02 in0.5 mm 0.00 in0.0 mm 0.15 in3.8 mm
02:18 PM 62.1°F16.7°C 61.2°F16.2°C 97% 16.0 mph S25.7 kmh S 29.0 mph46.7 kmh 29.93 in1013.5 mb 0.02 in0.5 mm 0.00 in0.0 mm 0.15 in3.8 mm
02:21 PM 62.1°F16.7°C 61.2°F16.2°C 97% 15.0 mph S24.1 kmh S 29.0 mph46.7 kmh 29.93 in1013.5 mb 0.02 in0.5 mm 0.00 in0.0 mm 0.15 in3.8 mm
02:24 PM 62.1°F16.7°C 61.2°F16.2°C 97% 15.0 mph S24.1 kmh S 31.0 mph49.9 kmh 29.93 in1013.5 mb 0.02 in0.5 mm 0.00 in0.0 mm 0.15 in3.8 mm
02:27 PM 62.1°F16.7°C 61.2°F16.2°C 97% 16.0 mph S25.7 kmh S 31.0 mph49.9 kmh 29.93 in1013.5 mb 0.01 in0.3 mm 0.00 in0.0 mm 0.15 in3.8 mm
02:30 PM 62.2°F16.8°C 61.3°F16.3°C 97% 16.0 mph S25.7 kmh S 31.0 mph49.9 kmh 29.93 in1013.5 mb 0.02 in0.5 mm 0.20 in5.1 mm 0.16 in4.1 mm
02:33 PM 62.2°F16.8°C 61.5°F16.4°C 97% 17.0 mph S27.4 kmh S 31.0 mph49.9 kmh 29.93 in1013.5 mb 0.02 in0.5 mm 0.00 in0.0 mm 0.16 in4.1 mm
02:36 PM 62.4°F16.9°C 61.5°F16.4°C 97% 17.0 mph S27.4 kmh S 30.0 mph48.3 kmh 29.93 in1013.5 mb 0.02 in0.5 mm 0.00 in0.0 mm 0.16 in4.1 mm
02:39 PM 62.6°F17.0°C 61.7°F16.5°C 97% 17.0 mph S27.4 kmh S 30.0 mph48.3 kmh 29.93 in1013.5 mb 0.01 in0.3 mm 0.00 in0.0 mm 0.16 in4.1 mm
02:42 PM 62.6°F17.0°C 61.7°F16.5°C 97% 17.0 mph S27.4 kmh S 28.0 mph45.1 kmh 29.93 in1013.5 mb 0.01 in0.3 mm 0.00 in0.0 mm 0.16 in4.1 mm
02:45 PM 62.8°F17.1°C 61.9°F16.6°C 97% 17.0 mph S27.4 kmh S 28.0 mph45.1 kmh 29.93 in1013.5 mb 0.01 in0.3 mm 0.00 in0.0 mm 0.16 in4.1 mm
02:48 PM 62.8°F17.1°C 61.9°F16.6°C 97% 16.0 mph S25.7 kmh S 28.0 mph45.1 kmh 29.93 in1013.5 mb 0.01 in0.3 mm 0.00 in0.0 mm 0.16 in4.1 mm
02:51 PM 63.0°F17.2°C 62.1°F16.7°C 97% 16.0 mph S25.7 kmh S 27.0 mph43.5 kmh 29.93 in1013.5 mb 0.01 in0.3 mm 0.00 in0.0 mm 0.16 in4.1 mm
02:54 PM 63.0°F17.2°C 62.1°F16.7°C 97% 16.0 mph S25.7 kmh S 27.0 mph43.5 kmh 29.93 in1013.5 mb 0.01 in0.3 mm 0.00 in0.0 mm 0.16 in4.1 mm
02:57 PM 63.1°F17.3°C 62.2°F16.8°C 97% 16.0 mph S25.7 kmh S 27.0 mph43.5 kmh 29.93 in1013.5 mb 0.01 in0.3 mm 0.00 in0.0 mm 0.16 in4.1 mm
03:00 PM 63.1°F17.3°C 62.4°F16.9°C 97% 16.0 mph S25.7 kmh S 27.0 mph43.5 kmh 29.93 in1013.5 mb 0.01 in0.3 mm 0.00 in0.0 mm 0.16 in4.1 mm
03:03 PM 63.3°F17.4°C 62.4°F16.9°C 97% 15.0 mph S24.1 kmh S 27.0 mph43.5 kmh 29.93 in1013.5 mb 0.01 in0.3 mm 0.00 in0.0 mm 0.16 in4.1 mm
03:06 PM 63.1°F17.3°C 62.4°F16.9°C 97% 15.0 mph S24.1 kmh S 26.0 mph41.8 kmh 29.93 in1013.5 mb 0.01 in0.3 mm 0.00 in0.0 mm 0.16 in4.1 mm
03:09 PM 63.1°F17.3°C 62.2°F16.8°C 97% 14.0 mph S22.5 kmh S 27.0 mph43.5 kmh 29.93 in1013.5 mb 0.01 in0.3 mm 0.00 in0.0 mm 0.16 in4.1 mm
03:12 PM 63.1°F17.3°C 62.2°F16.8°C 97% 14.0 mph S22.5 kmh S 27.0 mph43.5 kmh 29.93 in1013.5 mb 0.01 in0.3 mm 0.00 in0.0 mm 0.16 in4.1 mm
03:15 PM 63.1°F17.3°C 62.2°F16.8°C 97% 14.0 mph S22.5 kmh S 27.0 mph43.5 kmh 29.93 in1013.5 mb 0.01 in0.3 mm 0.00 in0.0 mm 0.16 in4.1 mm
03:18 PM 63.1°F17.3°C 62.4°F16.9°C 97% 12.0 mph S19.3 kmh S 24.0 mph38.6 kmh 29.93 in1013.5 mb 0.01 in0.3 mm 0.00 in0.0 mm 0.16 in4.1 mm
03:21 PM 63.3°F17.4°C 62.4°F16.9°C 97% 13.0 mph S20.9 kmh S 24.0 mph38.6 kmh 29.93 in1013.5 mb 0.01 in0.3 mm 0.00 in0.0 mm 0.16 in4.1 mm
03:24 PM 63.3°F17.4°C 62.4°F16.9°C 97% 12.0 mph S19.3 kmh S 24.0 mph38.6 kmh 29.93 in1013.5 mb 0.01 in0.3 mm 0.00 in0.0 mm 0.16 in4.1 mm
03:27 PM 63.3°F17.4°C 62.4°F16.9°C 97% 12.0 mph S19.3 kmh S 24.0 mph38.6 kmh 29.93 in1013.5 mb 0.01 in0.3 mm 0.00 in0.0 mm 0.16 in4.1 mm
03:30 PM 63.3°F17.4°C 62.6°F17.0°C 97% 12.0 mph S19.3 kmh S 21.0 mph33.8 kmh 29.93 in1013.5 mb 0.00 in0.0 mm 0.00 in0.0 mm 0.16 in4.1 mm
03:33 PM 63.3°F17.4°C 62.4°F16.9°C 97% 11.0 mph S17.7 kmh S 20.0 mph32.2 kmh 29.93 in1013.5 mb 0.00 in0.0 mm 0.00 in0.0 mm 0.16 in4.1 mm
03:36 PM 63.1°F17.3°C 62.4°F16.9°C 97% 12.0 mph S19.3 kmh S 20.0 mph32.2 kmh 29.93 in1013.5 mb 0.00 in0.0 mm 0.00 in0.0 mm 0.16 in4.1 mm
03:39 PM 63.1°F17.3°C 62.2°F16.8°C 97% 12.0 mph S19.3 kmh S 19.0 mph30.6 kmh 29.93 in1013.5 mb 0.00 in0.0 mm 0.00 in0.0 mm 0.16 in4.1 mm
03:42 PM 63.1°F17.3°C 62.2°F16.8°C 97% 12.0 mph S19.3 kmh S 21.0 mph33.8 kmh 29.93 in1013.5 mb 0.00 in0.0 mm 0.00 in0.0 mm 0.16 in4.1 mm
03:45 PM 63.0°F17.2°C 62.1°F16.7°C 97% 13.0 mph S20.9 kmh S 21.0 mph33.8 kmh 29.93 in1013.5 mb 0.00 in0.0 mm 0.00 in0.0 mm 0.16 in4.1 mm
03:48 PM 63.0°F17.2°C 62.1°F16.7°C 97% 13.0 mph S20.9 kmh S 21.0 mph33.8 kmh 29.93 in1013.5 mb 0.01 in0.3 mm 0.20 in5.1 mm 0.17 in4.3 mm
03:51 PM 63.1°F17.3°C 62.2°F16.8°C 97% 14.0 mph S22.5 kmh S 26.0 mph41.8 kmh 29.93 in1013.5 mb 0.01 in0.3 mm 0.00 in0.0 mm 0.17 in4.3 mm
03:54 PM 63.1°F17.3°C 62.2°F16.8°C 97% 14.0 mph S22.5 kmh S 26.0 mph41.8 kmh 29.93 in1013.5 mb 0.01 in0.3 mm 0.00 in0.0 mm 0.17 in4.3 mm
03:57 PM 63.1°F17.3°C 62.2°F16.8°C 97% 13.0 mph S20.9 kmh S 26.0 mph41.8 kmh 29.93 in1013.5 mb 0.01 in0.3 mm 0.00 in0.0 mm 0.17 in4.3 mm
04:00 PM 63.0°F17.2°C 62.1°F16.7°C 97% 12.0 mph S19.3 kmh S 26.0 mph41.8 kmh 29.93 in1013.5 mb 0.01 in0.3 mm 0.00 in0.0 mm 0.17 in4.3 mm
04:03 PM 63.0°F17.2°C 62.1°F16.7°C 97% 12.0 mph S19.3 kmh S 25.0 mph40.2 kmh 29.93 in1013.5 mb 0.01 in0.3 mm 0.00 in0.0 mm 0.17 in4.3 mm
04:06 PM 63.0°F17.2°C 62.1°F16.7°C 97% 12.0 mph S19.3 kmh S 25.0 mph40.2 kmh 29.93 in1013.5 mb 0.01 in0.3 mm 0.00 in0.0 mm 0.17 in4.3 mm
04:09 PM 63.0°F17.2°C 62.1°F16.7°C 97% 11.0 mph S17.7 kmh S 21.0 mph33.8 kmh 29.93 in1013.5 mb 0.01 in0.3 mm 0.00 in0.0 mm 0.17 in4.3 mm
04:12 PM 63.0°F17.2°C 62.1°F16.7°C 97% 11.0 mph S17.7 kmh S 23.0 mph37.0 kmh 29.93 in1013.5 mb 0.01 in0.3 mm 0.00 in0.0 mm 0.17 in4.3 mm
04:15 PM 63.0°F17.2°C 62.1°F16.7°C 97% 12.0 mph S19.3 kmh S 23.0 mph37.0 kmh 29.93 in1013.5 mb 0.01 in0.3 mm 0.00 in0.0 mm 0.17 in4.3 mm
04:18 PM 63.0°F17.2°C 62.1°F16.7°C 97% 11.0 mph S17.7 kmh S 23.0 mph37.0 kmh 29.93 in1013.5 mb 0.01 in0.3 mm 0.00 in0.0 mm 0.17 in4.3 mm
04:21 PM 63.0°F17.2°C 62.1°F16.7°C 97% 11.0 mph S17.7 kmh S 23.0 mph37.0 kmh 29.93 in1013.5 mb 0.01 in0.3 mm 0.00 in0.0 mm 0.17 in4.3 mm
04:24 PM 62.8°F17.1°C 61.9°F16.6°C 97% 11.0 mph S17.7 kmh S 19.0 mph30.6 kmh 29.93 in1013.5 mb 0.01 in0.3 mm 0.00 in0.0 mm 0.17 in4.3 mm
04:27 PM 63.0°F17.2°C 62.1°F16.7°C 97% 10.0 mph S16.1 kmh S 19.0 mph30.6 kmh 29.93 in1013.5 mb 0.01 in0.3 mm 0.00 in0.0 mm 0.17 in4.3 mm
04:30 PM 63.0°F17.2°C 62.1°F16.7°C 97% 9.0 mph S14.5 kmh S 16.0 mph25.7 kmh 29.93 in1013.5 mb 0.01 in0.3 mm 0.00 in0.0 mm 0.17 in4.3 mm
04:33 PM 63.0°F17.2°C 62.1°F16.7°C 97% 9.0 mph S14.5 kmh S 16.0 mph25.7 kmh 29.93 in1013.5 mb 0.01 in0.3 mm 0.00 in0.0 mm 0.17 in4.3 mm
04:36 PM 63.0°F17.2°C 62.1°F16.7°C 97% 9.0 mph S14.5 kmh S 16.0 mph25.7 kmh 29.93 in1013.5 mb 0.01 in0.3 mm 0.00 in0.0 mm 0.17 in4.3 mm
04:39 PM 63.0°F17.2°C 62.1°F16.7°C 97% 8.0 mph S12.9 kmh S 16.0 mph25.7 kmh 29.94 in1013.9 mb 0.01 in0.3 mm 0.00 in0.0 mm 0.17 in4.3 mm
04:42 PM 63.0°F17.2°C 62.1°F16.7°C 97% 8.0 mph SSW12.9 kmh SSW 16.0 mph25.7 kmh 29.94 in1013.9 mb 0.01 in0.3 mm 0.00 in0.0 mm 0.17 in4.3 mm
04:45 PM 63.0°F17.2°C 62.1°F16.7°C 97% 8.0 mph SSW12.9 kmh SSW 18.0 mph29.0 kmh 29.94 in1013.9 mb 0.01 in0.3 mm 0.00 in0.0 mm 0.17 in4.3 mm
04:48 PM 63.0°F17.2°C 62.1°F16.7°C 97% 7.0 mph SSW11.3 kmh SSW 18.0 mph29.0 kmh 29.94 in1013.9 mb 0.00 in0.0 mm 0.00 in0.0 mm 0.17 in4.3 mm
04:51 PM 62.8°F17.1°C 61.9°F16.6°C 97% 7.0 mph SW11.3 kmh SW 18.0 mph29.0 kmh 29.94 in1013.9 mb 0.00 in0.0 mm 0.00 in0.0 mm 0.17 in4.3 mm
04:54 PM 62.8°F17.1°C 61.9°F16.6°C 97% 8.0 mph SW12.9 kmh SW 19.0 mph30.6 kmh 29.94 in1013.9 mb 0.00 in0.0 mm 0.00 in0.0 mm 0.17 in4.3 mm
04:57 PM 62.8°F17.1°C 61.9°F16.6°C 97% 8.0 mph SW12.9 kmh SW 19.0 mph30.6 kmh 29.94 in1013.9 mb 0.00 in0.0 mm 0.00 in0.0 mm 0.17 in4.3 mm
05:00 PM 62.6°F17.0°C 61.7°F16.5°C 97% 8.0 mph SW12.9 kmh SW 19.0 mph30.6 kmh 29.94 in1013.9 mb 0.00 in0.0 mm 0.00 in0.0 mm 0.17 in4.3 mm
05:03 PM 62.8°F17.1°C 61.9°F16.6°C 97% 8.0 mph SW12.9 kmh SW 18.0 mph29.0 kmh 29.94 in1013.9 mb 0.00 in0.0 mm 0.00 in0.0 mm 0.17 in4.3 mm
05:06 PM 62.8°F17.1°C 61.9°F16.6°C 97% 8.0 mph SSW12.9 kmh SSW 16.0 mph25.7 kmh 29.94 in1013.9 mb 0.00 in0.0 mm 0.00 in0.0 mm 0.17 in4.3 mm
05:09 PM 62.8°F17.1°C 61.9°F16.6°C 97% 9.0 mph SSW14.5 kmh SSW 16.0 mph25.7 kmh 29.93 in1013.5 mb 0.00 in0.0 mm 0.00 in0.0 mm 0.17 in4.3 mm
05:12 PM 62.8°F17.1°C 61.9°F16.6°C 97% 9.0 mph SSW14.5 kmh SSW 18.0 mph29.0 kmh 29.93 in1013.5 mb 0.00 in0.0 mm 0.00 in0.0 mm 0.17 in4.3 mm
05:15 PM 62.8°F17.1°C 61.9°F16.6°C 97% 9.0 mph SSW14.5 kmh SSW 18.0 mph29.0 kmh 29.93 in1013.5 mb 0.00 in0.0 mm 0.00 in0.0 mm 0.17 in4.3 mm
05:18 PM 63.0°F17.2°C 62.1°F16.7°C 97% 8.0 mph S12.9 kmh S 18.0 mph29.0 kmh 29.93 in1013.5 mb 0.00 in0.0 mm 0.00 in0.0 mm 0.17 in4.3 mm
05:21 PM 63.3°F17.4°C 62.8°F17.1°C 98% 8.0 mph S12.9 kmh S 18.0 mph29.0 kmh 29.94 in1013.9 mb 0.01 in0.3 mm 0.20 in5.1 mm 0.17 in4.3 mm
05:24 PM 63.1°F17.3°C 62.6°F17.0°C 98% 8.0 mph S12.9 kmh S 14.0 mph22.5 kmh 29.94 in1013.9 mb 0.01 in0.3 mm 0.00 in0.0 mm 0.17 in4.3 mm
05:27 PM 63.0°F17.2°C 62.1°F16.7°C 97% 9.0 mph S14.5 kmh S 16.0 mph25.7 kmh 29.94 in1013.9 mb 0.01 in0.3 mm 0.00 in0.0 mm 0.17 in4.3 mm
05:30 PM 62.8°F17.1°C 61.9°F16.6°C 97% 9.0 mph S14.5 kmh S 18.0 mph29.0 kmh 29.94 in1013.9 mb 0.01 in0.3 mm 0.00 in0.0 mm 0.17 in4.3 mm
05:33 PM 62.8°F17.1°C 61.9°F16.6°C 97% 9.0 mph S14.5 kmh S 18.0 mph29.0 kmh 29.94 in1013.9 mb 0.01 in0.3 mm 0.00 in0.0 mm 0.17 in4.3 mm
05:36 PM 62.8°F17.1°C 61.9°F16.6°C 97% 8.0 mph SSW12.9 kmh SSW 18.0 mph29.0 kmh 29.94 in1013.9 mb 0.01 in0.3 mm 0.00 in0.0 mm 0.17 in4.3 mm
05:39 PM 62.8°F17.1°C 61.9°F16.6°C 97% 8.0 mph SSW12.9 kmh SSW 17.0 mph27.4 kmh 29.93 in1013.5 mb 0.01 in0.3 mm 0.00 in0.0 mm 0.17 in4.3 mm
05:42 PM 62.8°F17.1°C 61.9°F16.6°C 97% 8.0 mph S12.9 kmh S 15.0 mph24.1 kmh 29.94 in1013.9 mb 0.01 in0.3 mm 0.00 in0.0 mm 0.17 in4.3 mm
05:45 PM 63.0°F17.2°C 62.1°F16.7°C 97% 8.0 mph S12.9 kmh S 21.0 mph33.8 kmh 29.93 in1013.5 mb 0.01 in0.3 mm 0.00 in0.0 mm 0.17 in4.3 mm
05:48 PM 62.8°F17.1°C 61.9°F16.6°C 97% 9.0 mph S14.5 kmh S 21.0 mph33.8 kmh 29.93 in1013.5 mb 0.01 in0.3 mm 0.00 in0.0 mm 0.17 in4.3 mm
05:51 PM 62.8°F17.1°C 61.9°F16.6°C 97% 10.0 mph S16.1 kmh S 21.0 mph33.8 kmh 29.93 in1013.5 mb 0.01 in0.3 mm 0.00 in0.0 mm 0.17 in4.3 mm
05:54 PM 62.8°F17.1°C 61.9°F16.6°C 97% 10.0 mph S16.1 kmh S 18.0 mph29.0 kmh 29.94 in1013.9 mb 0.01 in0.3 mm 0.00 in0.0 mm 0.17 in4.3 mm
05:57 PM 62.6°F17.0°C 61.7°F16.5°C 97% 10.0 mph S16.1 kmh S 16.0 mph25.7 kmh 29.93 in1013.5 mb 0.01 in0.3 mm 0.00 in0.0 mm 0.17 in4.3 mm
06:00 PM 62.8°F17.1°C 61.9°F16.6°C 97% 9.0 mph S14.5 kmh S 16.0 mph25.7 kmh 29.93 in1013.5 mb 0.01 in0.3 mm 0.00 in0.0 mm 0.17 in4.3 mm
06:03 PM 62.8°F17.1°C 61.9°F16.6°C 97% 10.0 mph S16.1 kmh S 17.0 mph27.4 kmh 29.93 in1013.5 mb 0.01 in0.3 mm 0.00 in0.0 mm 0.17 in4.3 mm
06:06 PM 62.6°F17.0°C 61.7°F16.5°C 97% 9.0 mph S14.5 kmh S 17.0 mph27.4 kmh 29.93 in1013.5 mb 0.01 in0.3 mm 0.00 in0.0 mm 0.17 in4.3 mm
06:09 PM 62.6°F17.0°C 61.7°F16.5°C 97% 9.0 mph S14.5 kmh S 17.0 mph27.4 kmh 29.93 in1013.5 mb 0.01 in0.3 mm 0.00 in0.0 mm 0.17 in4.3 mm
06:12 PM 62.6°F17.0°C 61.7°F16.5°C 97% 8.0 mph S12.9 kmh S 17.0 mph27.4 kmh 29.93 in1013.5 mb 0.01 in0.3 mm 0.00 in0.0 mm 0.17 in4.3 mm
06:15 PM 62.6°F17.0°C 61.7°F16.5°C 97% 8.0 mph S12.9 kmh S 14.0 mph22.5 kmh 29.94 in1013.9 mb 0.01 in0.3 mm 0.00 in0.0 mm 0.17 in4.3 mm
06:18 PM 62.4°F16.9°C 61.7°F16.5°C 97% 8.0 mph S12.9 kmh S 15.0 mph24.1 kmh 29.94 in1013.9 mb 0.00 in0.0 mm 0.00 in0.0 mm 0.17 in4.3 mm
06:21 PM 62.4°F16.9°C 61.7°F16.5°C 97% 9.0 mph S14.5 kmh S 15.0 mph24.1 kmh 29.94 in1013.9 mb 0.00 in0.0 mm 0.00 in0.0 mm 0.17 in4.3 mm
06:24 PM 62.4°F16.9°C 61.7°F16.5°C 97% 8.0 mph S12.9 kmh S 15.0 mph24.1 kmh 29.94 in1013.9 mb 0.00 in0.0 mm 0.00 in0.0 mm 0.17 in4.3 mm
06:27 PM 62.4°F16.9°C 61.5°F16.4°C 97% 8.0 mph S12.9 kmh S 15.0 mph24.1 kmh 29.94 in1013.9 mb 0.00 in0.0 mm 0.00 in0.0 mm 0.17 in4.3 mm
06:30 PM 62.2°F16.8°C 61.5°F16.4°C 97% 8.0 mph SSW12.9 kmh SSW 15.0 mph24.1 kmh 29.94 in1013.9 mb 0.00 in0.0 mm 0.00 in0.0 mm 0.17 in4.3 mm
06:33 PM 62.2°F16.8°C 61.5°F16.4°C 97% 8.0 mph SSW12.9 kmh SSW 19.0 mph30.6 kmh 29.94 in1013.9 mb 0.00 in0.0 mm 0.00 in0.0 mm 0.17 in4.3 mm
06:36 PM 62.2°F16.8°C 61.3°F16.3°C 97% 9.0 mph SSW14.5 kmh SSW 19.0 mph30.6 kmh 29.94 in1013.9 mb 0.00 in0.0 mm 0.00 in0.0 mm 0.17 in4.3 mm
06:39 PM 62.2°F16.8°C 61.3°F16.3°C 97% 8.0 mph SSW12.9 kmh SSW 19.0 mph30.6 kmh 29.95 in1014.2 mb 0.00 in0.0 mm 0.00 in0.0 mm 0.17 in4.3 mm
06:42 PM 62.2°F16.8°C 61.3°F16.3°C 97% 8.0 mph SSW12.9 kmh SSW 19.0 mph30.6 kmh 29.94 in1013.9 mb 0.00 in0.0 mm 0.00 in0.0 mm 0.17 in4.3 mm
06:45 PM 62.2°F16.8°C 61.3°F16.3°C 97% 7.0 mph S11.3 kmh S 14.0 mph22.5 kmh 29.94 in1013.9 mb 0.00 in0.0 mm 0.00 in0.0 mm 0.17 in4.3 mm
06:48 PM 62.1°F16.7°C 61.2°F16.2°C 97% 7.0 mph S11.3 kmh S 17.0 mph27.4 kmh 29.95 in1014.2 mb 0.00 in0.0 mm 0.00 in0.0 mm 0.17 in4.3 mm
06:51 PM 62.1°F16.7°C 61.2°F16.2°C 97% 7.0 mph S11.3 kmh S 17.0 mph27.4 kmh 29.94 in1013.9 mb 0.00 in0.0 mm 0.00 in0.0 mm 0.17 in4.3 mm
06:54 PM 62.1°F16.7°C 61.2°F16.2°C 97% 7.0 mph S11.3 kmh S 17.0 mph27.4 kmh 29.94 in1013.9 mb 0.00 in0.0 mm 0.00 in0.0 mm 0.17 in4.3 mm
06:57 PM 62.1°F16.7°C 61.2°F16.2°C 97% 8.0 mph S12.9 kmh S 16.0 mph25.7 kmh 29.95 in1014.2 mb 0.00 in0.0 mm 0.00 in0.0 mm 0.17 in4.3 mm
07:00 PM 62.1°F16.7°C 61.2°F16.2°C 97% 7.0 mph S11.3 kmh S 14.0 mph22.5 kmh 29.95 in1014.2 mb 0.00 in0.0 mm 0.00 in0.0 mm 0.17 in4.3 mm
07:03 PM 62.1°F16.7°C 61.2°F16.2°C 97% 7.0 mph SSW11.3 kmh SSW 13.0 mph20.9 kmh 29.95 in1014.2 mb 0.00 in0.0 mm 0.00 in0.0 mm 0.17 in4.3 mm
07:06 PM 62.1°F16.7°C 61.2°F16.2°C 97% 6.0 mph SSW9.7 kmh SSW 11.0 mph17.7 kmh 29.95 in1014.2 mb 0.00 in0.0 mm 0.00 in0.0 mm 0.17 in4.3 mm
07:09 PM 62.1°F16.7°C 61.2°F16.2°C 97% 6.0 mph SSW9.7 kmh SSW 11.0 mph17.7 kmh 29.95 in1014.2 mb 0.00 in0.0 mm 0.00 in0.0 mm 0.17 in4.3 mm
07:12 PM 62.1°F16.7°C 61.2°F16.2°C 97% 6.0 mph SSW9.7 kmh SSW 13.0 mph20.9 kmh 29.95 in1014.2 mb 0.00 in0.0 mm 0.00 in0.0 mm 0.17 in4.3 mm
07:15 PM 62.1°F16.7°C 61.5°F16.4°C 98% 6.0 mph SSW9.7 kmh SSW 13.0 mph20.9 kmh 29.95 in1014.2 mb 0.00 in0.0 mm 0.00 in0.0 mm 0.17 in4.3 mm
07:18 PM 62.2°F16.8°C 61.7°F16.5°C 98% 6.0 mph SSW9.7 kmh SSW 14.0 mph22.5 kmh 29.95 in1014.2 mb 0.00 in0.0 mm 0.00 in0.0 mm 0.17 in4.3 mm
07:21 PM 62.2°F16.8°C 61.7°F16.5°C 98% 6.0 mph SSW9.7 kmh SSW 14.0 mph22.5 kmh 29.95 in1014.2 mb 0.00 in0.0 mm 0.00 in0.0 mm 0.17 in4.3 mm
07:24 PM 62.2°F16.8°C 61.7°F16.5°C 98% 6.0 mph SSW9.7 kmh SSW 15.0 mph24.1 kmh 29.95 in1014.2 mb 0.00 in0.0 mm 0.00 in0.0 mm 0.17 in4.3 mm
07:27 PM 62.1°F16.7°C 61.5°F16.4°C 98% 7.0 mph SSW11.3 kmh SSW 15.0 mph24.1 kmh 29.95 in1014.2 mb 0.00 in0.0 mm 0.00 in0.0 mm 0.17 in4.3 mm
07:30 PM 62.1°F16.7°C 61.5°F16.4°C 98% 6.0 mph SSW9.7 kmh SSW 15.0 mph24.1 kmh 29.95 in1014.2 mb 0.00 in0.0 mm 0.00 in0.0 mm 0.17 in4.3 mm
07:33 PM 62.1°F16.7°C 61.5°F16.4°C 98% 7.0 mph SSW11.3 kmh SSW 15.0 mph24.1 kmh 29.95 in1014.2 mb 0.00 in0.0 mm 0.00 in0.0 mm 0.17 in4.3 mm
07:36 PM 62.1°F16.7°C 61.5°F16.4°C 98% 6.0 mph SSW9.7 kmh SSW 14.0 mph22.5 kmh 29.95 in1014.2 mb 0.00 in0.0 mm 0.00 in0.0 mm 0.17 in4.3 mm
07:39 PM 62.1°F16.7°C 61.5°F16.4°C 98% 6.0 mph SSW9.7 kmh SSW 14.0 mph22.5 kmh 29.95 in1014.2 mb 0.00 in0.0 mm 0.00 in0.0 mm 0.17 in4.3 mm
07:42 PM 62.1°F16.7°C 61.3°F16.3°C 98% 7.0 mph SSW11.3 kmh SSW 14.0 mph22.5 kmh 29.96 in1014.6 mb 0.00 in0.0 mm 0.00 in0.0 mm 0.17 in4.3 mm
07:45 PM 62.1°F16.7°C 61.5°F16.4°C 98% 6.0 mph SSW9.7 kmh SSW 14.0 mph22.5 kmh 29.96 in1014.6 mb 0.00 in0.0 mm 0.00 in0.0 mm 0.17 in4.3 mm
07:48 PM 62.1°F16.7°C 61.5°F16.4°C 98% 6.0 mph SSW9.7 kmh SSW 14.0 mph22.5 kmh 29.96 in1014.6 mb 0.00 in0.0 mm 0.00 in0.0 mm 0.17 in4.3 mm
07:51 PM 62.1°F16.7°C 61.3°F16.3°C 98% 6.0 mph SSW9.7 kmh SSW 12.0 mph19.3 kmh 29.96 in1014.6 mb 0.00 in0.0 mm 0.00 in0.0 mm 0.17 in4.3 mm
07:54 PM 62.1°F16.7°C 61.3°F16.3°C 98% 5.0 mph SSW8.0 kmh SSW 12.0 mph19.3 kmh 29.96 in1014.6 mb 0.00 in0.0 mm 0.00 in0.0 mm 0.17 in4.3 mm
07:57 PM 62.1°F16.7°C 61.3°F16.3°C 98% 6.0 mph SSW9.7 kmh SSW 11.0 mph17.7 kmh 29.96 in1014.6 mb 0.00 in0.0 mm 0.00 in0.0 mm 0.17 in4.3 mm
08:00 PM 62.1°F16.7°C 61.3°F16.3°C 98% 6.0 mph SSW9.7 kmh SSW 11.0 mph17.7 kmh 29.96 in1014.6 mb 0.00 in0.0 mm 0.00 in0.0 mm 0.17 in4.3 mm
08:03 PM 62.1°F16.7°C 61.3°F16.3°C 98% 6.0 mph SSW9.7 kmh SSW 12.0 mph19.3 kmh 29.96 in1014.6 mb 0.00 in0.0 mm 0.00 in0.0 mm 0.17 in4.3 mm
08:06 PM 62.1°F16.7°C 61.3°F16.3°C 98% 6.0 mph SSW9.7 kmh SSW 12.0 mph19.3 kmh 29.96 in1014.6 mb 0.00 in0.0 mm 0.00 in0.0 mm 0.17 in4.3 mm
08:09 PM 61.9°F16.6°C 61.3°F16.3°C 98% 6.0 mph SW9.7 kmh SW 13.0 mph20.9 kmh 29.96 in1014.6 mb 0.00 in0.0 mm 0.00 in0.0 mm 0.17 in4.3 mm
08:12 PM 62.1°F16.7°C 61.3°F16.3°C 98% 6.0 mph SW9.7 kmh SW 14.0 mph22.5 kmh 29.96 in1014.6 mb 0.01 in0.3 mm 0.20 in5.1 mm 0.18 in4.6 mm
08:15 PM 61.9°F16.6°C 61.3°F16.3°C 98% 6.0 mph SSW9.7 kmh SSW 14.0 mph22.5 kmh 29.96 in1014.6 mb 0.01 in0.3 mm 0.00 in0.0 mm 0.18 in4.6 mm
08:18 PM 61.9°F16.6°C 61.0°F16.1°C 97% 6.0 mph SSW9.7 kmh SSW 14.0 mph22.5 kmh 29.96 in1014.6 mb 0.01 in0.3 mm 0.00 in0.0 mm 0.18 in4.6 mm
08:21 PM 61.9°F16.6°C 61.0°F16.1°C 97% 6.0 mph S9.7 kmh S 14.0 mph22.5 kmh 29.96 in1014.6 mb 0.01 in0.3 mm 0.00 in0.0 mm 0.18 in4.6 mm
08:24 PM 61.9°F16.6°C 61.0°F16.1°C 97% 6.0 mph S9.7 kmh S 11.0 mph17.7 kmh 29.96 in1014.6 mb 0.01 in0.3 mm 0.00 in0.0 mm 0.18 in4.6 mm
08:27 PM 61.9°F16.6°C 61.0°F16.1°C 97% 6.0 mph S9.7 kmh S 11.0 mph17.7 kmh 29.96 in1014.6 mb 0.01 in0.3 mm 0.00 in0.0 mm 0.18 in4.6 mm
08:30 PM 61.9°F16.6°C 61.0°F16.1°C 97% 6.0 mph SSW9.7 kmh SSW 14.0 mph22.5 kmh 29.96 in1014.6 mb 0.01 in0.3 mm 0.00 in0.0 mm 0.18 in4.6 mm
08:33 PM 61.9°F16.6°C 61.0°F16.1°C 97% 6.0 mph SSW9.7 kmh SSW 14.0 mph22.5 kmh 29.97 in1014.9 mb 0.01 in0.3 mm 0.00 in0.0 mm 0.18 in4.6 mm
08:36 PM 61.9°F16.6°C 61.0°F16.1°C 97% 6.0 mph SSW9.7 kmh SSW 14.0 mph22.5 kmh 29.96 in1014.6 mb 0.01 in0.3 mm 0.00 in0.0 mm 0.18 in4.6 mm
08:39 PM 61.9°F16.6°C 61.3°F16.3°C 98% 6.0 mph SSW9.7 kmh SSW 14.0 mph22.5 kmh 29.96 in1014.6 mb 0.01 in0.3 mm 0.00 in0.0 mm 0.18 in4.6 mm
08:42 PM 61.9°F16.6°C 61.0°F16.1°C 97% 6.0 mph SSW9.7 kmh SSW 12.0 mph19.3 kmh 29.97 in1014.9 mb 0.01 in0.3 mm 0.00 in0.0 mm 0.18 in4.6 mm
08:45 PM 61.9°F16.6°C 61.3°F16.3°C 98% 6.0 mph SSW9.7 kmh SSW 12.0 mph19.3 kmh 29.97 in1014.9 mb 0.01 in0.3 mm 0.00 in0.0 mm 0.18 in4.6 mm
08:48 PM 61.9°F16.6°C 61.0°F16.1°C 97% 6.0 mph SSW9.7 kmh SSW 11.0 mph17.7 kmh 29.97 in1014.9 mb 0.01 in0.3 mm 0.00 in0.0 mm 0.18 in4.6 mm
08:51 PM 61.9°F16.6°C 61.3°F16.3°C 98% 6.0 mph SSW9.7 kmh SSW 12.0 mph19.3 kmh 29.97 in1014.9 mb 0.01 in0.3 mm 0.00 in0.0 mm 0.18 in4.6 mm
08:54 PM 61.9°F16.6°C 61.3°F16.3°C 98% 6.0 mph SSW9.7 kmh SSW 12.0 mph19.3 kmh 29.97 in1014.9 mb 0.01 in0.3 mm 0.00 in0.0 mm 0.18 in4.6 mm
08:57 PM 61.9°F16.6°C 61.3°F16.3°C 98% 5.0 mph SSW8.0 kmh SSW 13.0 mph20.9 kmh 29.97 in1014.9 mb 0.01 in0.3 mm 0.00 in0.0 mm 0.18 in4.6 mm
09:00 PM 61.9°F16.6°C 61.3°F16.3°C 98% 6.0 mph SSW9.7 kmh SSW 13.0 mph20.9 kmh 29.97 in1014.9 mb 0.01 in0.3 mm 0.00 in0.0 mm 0.18 in4.6 mm
09:03 PM 61.9°F16.6°C 61.3°F16.3°C 98% 5.0 mph SW8.0 kmh SW 13.0 mph20.9 kmh 29.97 in1014.9 mb 0.01 in0.3 mm 0.00 in0.0 mm 0.18 in4.6 mm
09:06 PM 61.9°F16.6°C 61.3°F16.3°C 98% 5.0 mph SW8.0 kmh SW 12.0 mph19.3 kmh 29.98 in1015.2 mb 0.01 in0.3 mm 0.00 in0.0 mm 0.18 in4.6 mm
09:09 PM 61.9°F16.6°C 61.3°F16.3°C 98% 6.0 mph SW9.7 kmh SW 14.0 mph22.5 kmh 29.98 in1015.2 mb 0.01 in0.3 mm 0.00 in0.0 mm 0.18 in4.6 mm
09:12 PM 61.9°F16.6°C 61.3°F16.3°C 98% 6.0 mph SW9.7 kmh SW 16.0 mph25.7 kmh 29.98 in1015.2 mb 0.00 in0.0 mm 0.00 in0.0 mm 0.18 in4.6 mm
09:15 PM 61.9°F16.6°C 61.3°F16.3°C 98% 6.0 mph SW9.7 kmh SW 16.0 mph25.7 kmh 29.98 in1015.2 mb 0.00 in0.0 mm 0.00 in0.0 mm 0.18 in4.6 mm
09:18 PM 61.9°F16.6°C 61.3°F16.3°C 98% 6.0 mph SW9.7 kmh SW 16.0 mph25.7 kmh 29.98 in1015.2 mb 0.00 in0.0 mm 0.00 in0.0 mm 0.18 in4.6 mm
09:21 PM 61.9°F16.6°C 61.3°F16.3°C 98% 6.0 mph SW9.7 kmh SW 12.0 mph19.3 kmh 29.98 in1015.2 mb 0.00 in0.0 mm 0.00 in0.0 mm 0.18 in4.6 mm
09:24 PM 62.1°F16.7°C 61.3°F16.3°C 98% 6.0 mph SW9.7 kmh SW 14.0 mph22.5 kmh 29.98 in1015.2 mb 0.00 in0.0 mm 0.00 in0.0 mm 0.18 in4.6 mm
09:27 PM 61.9°F16.6°C 61.3°F16.3°C 98% 6.0 mph SW9.7 kmh SW 14.0 mph22.5 kmh 29.98 in1015.2 mb 0.00 in0.0 mm 0.00 in0.0 mm 0.18 in4.6 mm
09:30 PM 62.1°F16.7°C 61.3°F16.3°C 98% 7.0 mph SW11.3 kmh SW 14.0 mph22.5 kmh 29.98 in1015.2 mb 0.00 in0.0 mm 0.00 in0.0 mm 0.18 in4.6 mm
09:33 PM 62.1°F16.7°C 61.3°F16.3°C 98% 7.0 mph SW11.3 kmh SW 15.0 mph24.1 kmh 29.98 in1015.2 mb 0.00 in0.0 mm 0.00 in0.0 mm 0.18 in4.6 mm
09:36 PM 62.1°F16.7°C 61.3°F16.3°C 98% 7.0 mph SW11.3 kmh SW 15.0 mph24.1 kmh 29.98 in1015.2 mb 0.00 in0.0 mm 0.00 in0.0 mm 0.18 in4.6 mm
09:39 PM 62.1°F16.7°C 61.3°F16.3°C 98% 7.0 mph SW11.3 kmh SW 15.0 mph24.1 kmh 29.98 in1015.2 mb 0.00 in0.0 mm 0.00 in0.0 mm 0.18 in4.6 mm
09:42 PM 62.1°F16.7°C 61.3°F16.3°C 98% 7.0 mph SW11.3 kmh SW 14.0 mph22.5 kmh 29.98 in1015.2 mb 0.00 in0.0 mm 0.00 in0.0 mm 0.18 in4.6 mm
09:45 PM 62.1°F16.7°C 61.3°F16.3°C 98% 6.0 mph SW9.7 kmh SW 12.0 mph19.3 kmh 29.98 in1015.2 mb 0.00 in0.0 mm 0.00 in0.0 mm 0.18 in4.6 mm
09:48 PM 62.1°F16.7°C 61.3°F16.3°C 98% 6.0 mph SW9.7 kmh SW 12.0 mph19.3 kmh 29.98 in1015.2 mb 0.00 in0.0 mm 0.00 in0.0 mm 0.18 in4.6 mm
09:51 PM 62.1°F16.7°C 61.3°F16.3°C 98% 5.0 mph SW8.0 kmh SW 10.0 mph16.1 kmh 29.98 in1015.2 mb 0.00 in0.0 mm 0.00 in0.0 mm 0.18 in4.6 mm
09:54 PM 61.9°F16.6°C 61.3°F16.3°C 98% 6.0 mph SW9.7 kmh SW 12.0 mph19.3 kmh 29.98 in1015.2 mb 0.00 in0.0 mm 0.00 in0.0 mm 0.18 in4.6 mm
09:57 PM 62.1°F16.7°C 61.3°F16.3°C 98% 5.0 mph SW8.0 kmh SW 14.0 mph22.5 kmh 29.98 in1015.2 mb 0.00 in0.0 mm 0.00 in0.0 mm 0.18 in4.6 mm
10:00 PM 62.1°F16.7°C 61.3°F16.3°C 98% 5.0 mph SW8.0 kmh SW 14.0 mph22.5 kmh 29.99 in1015.6 mb 0.00 in0.0 mm 0.00 in0.0 mm 0.18 in4.6 mm
10:03 PM 62.1°F16.7°C 61.3°F16.3°C 98% 5.0 mph SW8.0 kmh SW 14.0 mph22.5 kmh 29.99 in1015.6 mb 0.00 in0.0 mm 0.00 in0.0 mm 0.18 in4.6 mm
10:06 PM 62.1°F16.7°C 61.5°F16.4°C 98% 5.0 mph SW8.0 kmh SW 12.0 mph19.3 kmh 29.99 in1015.6 mb 0.00 in0.0 mm 0.00 in0.0 mm 0.18 in4.6 mm
10:09 PM 62.1°F16.7°C 61.5°F16.4°C 98% 5.0 mph WSW8.0 kmh WSW 12.0 mph19.3 kmh 29.99 in1015.6 mb 0.00 in0.0 mm 0.00 in0.0 mm 0.18 in4.6 mm
10:12 PM 62.1°F16.7°C 61.5°F16.4°C 98% 5.0 mph SW8.0 kmh SW 12.0 mph19.3 kmh 29.99 in1015.6 mb 0.00 in0.0 mm 0.00 in0.0 mm 0.18 in4.6 mm
10:15 PM 62.1°F16.7°C 61.5°F16.4°C 98% 5.0 mph SW8.0 kmh SW 14.0 mph22.5 kmh 29.99 in1015.6 mb 0.00 in0.0 mm 0.00 in0.0 mm 0.18 in4.6 mm
10:18 PM 62.2°F16.8°C 61.7°F16.5°C 98% 5.0 mph SW8.0 kmh SW 14.0 mph22.5 kmh 29.99 in1015.6 mb 0.00 in0.0 mm 0.00 in0.0 mm 0.18 in4.6 mm
10:21 PM 62.2°F16.8°C 61.7°F16.5°C 98% 5.0 mph WSW8.0 kmh WSW 14.0 mph22.5 kmh 29.99 in1015.6 mb 0.00 in0.0 mm 0.00 in0.0 mm 0.18 in4.6 mm
10:24 PM 62.2°F16.8°C 61.7°F16.5°C 98% 4.0 mph WSW6.4 kmh WSW 14.0 mph22.5 kmh 29.99 in1015.6 mb 0.00 in0.0 mm 0.00 in0.0 mm 0.18 in4.6 mm
10:27 PM 62.2°F16.8°C 61.7°F16.5°C 98% 5.0 mph WSW8.0 kmh WSW 13.0 mph20.9 kmh 29.99 in1015.6 mb 0.00 in0.0 mm 0.00 in0.0 mm 0.18 in4.6 mm
10:30 PM 62.2°F16.8°C 61.7°F16.5°C 98% 5.0 mph WSW8.0 kmh WSW 13.0 mph20.9 kmh 29.99 in1015.6 mb 0.00 in0.0 mm 0.00 in0.0 mm 0.18 in4.6 mm
10:33 PM 62.2°F16.8°C 61.7°F16.5°C 98% 5.0 mph WSW8.0 kmh WSW 10.0 mph16.1 kmh 29.99 in1015.6 mb 0.00 in0.0 mm 0.00 in0.0 mm 0.18 in4.6 mm
10:36 PM 62.2°F16.8°C 61.7°F16.5°C 98% 4.0 mph SW6.4 kmh SW 10.0 mph16.1 kmh 29.99 in1015.6 mb 0.00 in0.0 mm 0.00 in0.0 mm 0.18 in4.6 mm
10:39 PM 62.2°F16.8°C 61.7°F16.5°C 98% 4.0 mph SW6.4 kmh SW 10.0 mph16.1 kmh 29.99 in1015.6 mb 0.00 in0.0 mm 0.00 in0.0 mm 0.18 in4.6 mm
10:42 PM 62.2°F16.8°C 61.7°F16.5°C 98% 5.0 mph SW8.0 kmh SW 13.0 mph20.9 kmh 29.99 in1015.6 mb 0.00 in0.0 mm 0.00 in0.0 mm 0.18 in4.6 mm
10:45 PM 62.2°F16.8°C 61.7°F16.5°C 98% 5.0 mph SW8.0 kmh SW 13.0 mph20.9 kmh 29.99 in1015.6 mb 0.00 in0.0 mm 0.00 in0.0 mm 0.18 in4.6 mm
10:48 PM 62.2°F16.8°C 61.7°F16.5°C 98% 5.0 mph SW8.0 kmh SW 16.0 mph25.7 kmh 29.99 in1015.6 mb 0.00 in0.0 mm 0.00 in0.0 mm 0.18 in4.6 mm
10:51 PM 62.2°F16.8°C 61.7°F16.5°C 98% 5.0 mph SW8.0 kmh SW 16.0 mph25.7 kmh 29.99 in1015.6 mb 0.00 in0.0 mm 0.00 in0.0 mm 0.18 in4.6 mm
10:54 PM 62.2°F16.8°C 61.7°F16.5°C 98% 6.0 mph SW9.7 kmh SW 16.0 mph25.7 kmh 29.99 in1015.6 mb 0.00 in0.0 mm 0.00 in0.0 mm 0.18 in4.6 mm
10:57 PM 62.2°F16.8°C 61.7°F16.5°C 98% 5.0 mph SW8.0 kmh SW 12.0 mph19.3 kmh 29.99 in1015.6 mb 0.00 in0.0 mm 0.00 in0.0 mm 0.18 in4.6 mm
11:00 PM 62.2°F16.8°C 61.7°F16.5°C 98% 5.0 mph SW8.0 kmh SW 11.0 mph17.7 kmh 29.99 in1015.6 mb 0.00 in0.0 mm 0.00 in0.0 mm 0.16 in4.1 mm
11:03 PM 62.2°F16.8°C 61.7°F16.5°C 98% 5.0 mph SW8.0 kmh SW 11.0 mph17.7 kmh 30.00 in1015.9 mb 0.00 in0.0 mm 0.00 in0.0 mm 0.16 in4.1 mm
11:06 PM 62.2°F16.8°C 61.7°F16.5°C 98% 5.0 mph SW8.0 kmh SW 12.0 mph19.3 kmh 30.00 in1015.9 mb 0.00 in0.0 mm 0.00 in0.0 mm 0.16 in4.1 mm
11:09 PM 62.2°F16.8°C 61.7°F16.5°C 98% 5.0 mph SW8.0 kmh SW 12.0 mph19.3 kmh 30.00 in1015.9 mb 0.00 in0.0 mm 0.00 in0.0 mm 0.16 in4.1 mm
11:12 PM 62.1°F16.7°C 61.5°F16.4°C 98% 5.0 mph SW8.0 kmh SW 12.0 mph19.3 kmh 30.00 in1015.9 mb 0.00 in0.0 mm 0.00 in0.0 mm 0.16 in4.1 mm
11:15 PM 62.1°F16.7°C 61.5°F16.4°C 98% 5.0 mph SW8.0 kmh SW 12.0 mph19.3 kmh 30.00 in1015.9 mb 0.00 in0.0 mm 0.00 in0.0 mm 0.16 in4.1 mm
11:18 PM 62.1°F16.7°C 61.5°F16.4°C 98% 5.0 mph SW8.0 kmh SW 16.0 mph25.7 kmh 30.00 in1015.9 mb 0.00 in0.0 mm 0.00 in0.0 mm 0.16 in4.1 mm
11:21 PM 62.1°F16.7°C 61.5°F16.4°C 98% 5.0 mph SW8.0 kmh SW 16.0 mph25.7 kmh 30.00 in1015.9 mb 0.00 in0.0 mm 0.00 in0.0 mm 0.16 in4.1 mm
11:24 PM 62.1°F16.7°C 61.5°F16.4°C 98% 5.0 mph SW8.0 kmh SW 16.0 mph25.7 kmh 30.00 in1015.9 mb 0.00 in0.0 mm 0.00 in0.0 mm 0.16 in4.1 mm
11:27 PM 62.1°F16.7°C 61.3°F16.3°C 98% 5.0 mph SW8.0 kmh SW 16.0 mph25.7 kmh 30.00 in1015.9 mb 0.00 in0.0 mm 0.00 in0.0 mm 0.16 in4.1 mm
11:30 PM 62.1°F16.7°C 61.3°F16.3°C 98% 5.0 mph SW8.0 kmh SW 15.0 mph24.1 kmh 30.00 in1015.9 mb 0.00 in0.0 mm 0.00 in0.0 mm 0.16 in4.1 mm
11:33 PM 62.1°F16.7°C 61.3°F16.3°C 98% 5.0 mph SW8.0 kmh SW 15.0 mph24.1 kmh 30.00 in1015.9 mb 0.00 in0.0 mm 0.00 in0.0 mm 0.16 in4.1 mm
11:36 PM 61.9°F16.6°C 61.3°F16.3°C 98% 5.0 mph SW8.0 kmh SW 15.0 mph24.1 kmh 30.00 in1015.9 mb 0.00 in0.0 mm 0.00 in0.0 mm 0.16 in4.1 mm
11:39 PM 61.9°F16.6°C 61.3°F16.3°C 98% 5.0 mph SW8.0 kmh SW 15.0 mph24.1 kmh 30.00 in1015.9 mb 0.00 in0.0 mm 0.00 in0.0 mm 0.16 in4.1 mm
11:42 PM 61.9°F16.6°C 61.3°F16.3°C 98% 4.0 mph SW6.4 kmh SW 12.0 mph19.3 kmh 30.00 in1015.9 mb 0.00 in0.0 mm 0.00 in0.0 mm 0.16 in4.1 mm
11:45 PM 61.9°F16.6°C 61.3°F16.3°C 98% 4.0 mph SW6.4 kmh SW 10.0 mph16.1 kmh 30.00 in1015.9 mb 0.00 in0.0 mm 0.00 in0.0 mm 0.16 in4.1 mm
11:48 PM 61.9°F16.6°C 61.2°F16.2°C 98% 5.0 mph SW8.0 kmh SW 11.0 mph17.7 kmh 30.00 in1015.9 mb 0.00 in0.0 mm 0.00 in0.0 mm 0.16 in4.1 mm
11:51 PM 61.7°F16.5°C 61.2°F16.2°C 98% 5.0 mph SW8.0 kmh SW 13.0 mph20.9 kmh 30.00 in1015.9 mb 0.00 in0.0 mm 0.00 in0.0 mm 0.16 in4.1 mm
11:54 PM 61.7°F16.5°C 61.2°F16.2°C 98% 5.0 mph SW8.0 kmh SW 13.0 mph20.9 kmh 30.00 in1015.9 mb 0.00 in0.0 mm 0.00 in0.0 mm 0.16 in4.1 mm
11:57 PM 61.7°F16.5°C 61.2°F16.2°C 98% 5.0 mph SW8.0 kmh SW 13.0 mph20.9 kmh 30.00 in1015.9 mb 0.00 in0.0 mm 0.00 in0.0 mm 0.16 in4.1 mm